<?xml version="1.0" encoding="UTF-8" standalone="no" ?>
<gpx xmlns="http://www.topografix.com/GPX/1/1" xmlns:xsi="http://www.w3.org/2001/XMLSchema-instance" xsi:schemaLocation="http://www.topografix.com/GPX/1/1 http://www.topografix.com/GPX/1/1/gpx.xsd" version="1.1" creator="VisuGPX - https://www.visugpx.com">
  <metadata>
    <name>Tour de France 2019</name>
    <desc><![CDATA[4272km en 2 mois en tandem avec notre petit chien dans le panier avant]]></desc>
  </metadata>
  <trk>
    <name><![CDATA[Tracé 20191030-075714]]></name>
    <trkseg>
      <trkpt lat="44.78509" lon="1.898">
        <ele>467.268</ele>
        <time>2019-10-30T07:16:34Z</time>
      </trkpt>
      <trkpt lat="44.78554" lon="1.89814">
        <ele>462.727</ele>
        <time>2019-10-30T07:17:22Z</time>
      </trkpt>
      <trkpt lat="44.78576" lon="1.89894">
        <ele>462.824</ele>
        <time>2019-10-30T07:18:22Z</time>
      </trkpt>
      <trkpt lat="44.78601" lon="1.89969">
        <ele>473.404</ele>
        <time>2019-10-30T07:19:31Z</time>
      </trkpt>
      <trkpt lat="44.78642" lon="1.89989">
        <ele>483.839</ele>
        <time>2019-10-30T07:20:22Z</time>
      </trkpt>
      <trkpt lat="44.78652" lon="1.89976">
        <ele>483.519</ele>
        <time>2019-10-30T07:28:34Z</time>
      </trkpt>
      <trkpt lat="44.78537" lon="1.9005">
        <ele>484.528</ele>
        <time>2019-10-30T07:29:07Z</time>
      </trkpt>
      <trkpt lat="44.78398" lon="1.90097">
        <ele>485.032</ele>
        <time>2019-10-30T07:29:37Z</time>
      </trkpt>
      <trkpt lat="44.78207" lon="1.89873">
        <ele>459.39</ele>
        <time>2019-10-30T07:30:07Z</time>
      </trkpt>
      <trkpt lat="44.78194" lon="1.89702">
        <ele>457.786</ele>
        <time>2019-10-30T07:30:40Z</time>
      </trkpt>
      <trkpt lat="44.78213" lon="1.89569">
        <ele>465.213</ele>
        <time>2019-10-30T07:31:10Z</time>
      </trkpt>
      <trkpt lat="44.7823" lon="1.89422">
        <ele>468.133</ele>
        <time>2019-10-30T07:31:43Z</time>
      </trkpt>
      <trkpt lat="44.78247" lon="1.89292">
        <ele>473.469</ele>
        <time>2019-10-30T07:32:13Z</time>
      </trkpt>
      <trkpt lat="44.78291" lon="1.89119">
        <ele>472.157</ele>
        <time>2019-10-30T07:32:46.001Z</time>
      </trkpt>
      <trkpt lat="44.78388" lon="1.88829">
        <ele>465.187</ele>
        <time>2019-10-30T07:33:16Z</time>
      </trkpt>
      <trkpt lat="44.78514" lon="1.88521">
        <ele>456.317</ele>
        <time>2019-10-30T07:33:46.001Z</time>
      </trkpt>
      <trkpt lat="44.78575" lon="1.88144">
        <ele>447.458</ele>
        <time>2019-10-30T07:34:19.001Z</time>
      </trkpt>
      <trkpt lat="44.78571" lon="1.87784">
        <ele>444.941</ele>
        <time>2019-10-30T07:34:49.001Z</time>
      </trkpt>
      <trkpt lat="44.78515" lon="1.8739">
        <ele>428.945</ele>
        <time>2019-10-30T07:35:22.001Z</time>
      </trkpt>
      <trkpt lat="44.7861" lon="1.8703">
        <ele>415.264</ele>
        <time>2019-10-30T07:35:52.001Z</time>
      </trkpt>
      <trkpt lat="44.78752" lon="1.86697">
        <ele>400.285</ele>
        <time>2019-10-30T07:36:22.001Z</time>
      </trkpt>
      <trkpt lat="44.78925" lon="1.86327">
        <ele>390.297</ele>
        <time>2019-10-30T07:36:55.001Z</time>
      </trkpt>
      <trkpt lat="44.78833" lon="1.86043">
        <ele>378.437</ele>
        <time>2019-10-30T07:37:25.001Z</time>
      </trkpt>
      <trkpt lat="44.78631" lon="1.85734">
        <ele>367.018</ele>
        <time>2019-10-30T07:37:58.001Z</time>
      </trkpt>
      <trkpt lat="44.78411" lon="1.85479">
        <ele>357.087</ele>
        <time>2019-10-30T07:38:28.001Z</time>
      </trkpt>
      <trkpt lat="44.78409" lon="1.85176">
        <ele>346.525</ele>
        <time>2019-10-30T07:38:58.001Z</time>
      </trkpt>
      <trkpt lat="44.78452" lon="1.85109">
        <ele>347.943</ele>
        <time>2019-10-30T07:39:31.001Z</time>
      </trkpt>
      <trkpt lat="44.78606" lon="1.85065">
        <ele>354.109</ele>
        <time>2019-10-30T07:40:01.001Z</time>
      </trkpt>
      <trkpt lat="44.787" lon="1.84943">
        <ele>349.565</ele>
        <time>2019-10-30T07:40:34.001Z</time>
      </trkpt>
      <trkpt lat="44.78723" lon="1.84781">
        <ele>348.506</ele>
        <time>2019-10-30T07:41:04.001Z</time>
      </trkpt>
      <trkpt lat="44.78725" lon="1.84622">
        <ele>351.284</ele>
        <time>2019-10-30T07:41:37.001Z</time>
      </trkpt>
      <trkpt lat="44.78723" lon="1.84496">
        <ele>354.423</ele>
        <time>2019-10-30T07:42:07.001Z</time>
      </trkpt>
      <trkpt lat="44.78788" lon="1.84419">
        <ele>353.485</ele>
        <time>2019-10-30T07:42:37.001Z</time>
      </trkpt>
      <trkpt lat="44.78781" lon="1.84276">
        <ele>358.706</ele>
        <time>2019-10-30T07:43:10.001Z</time>
      </trkpt>
      <trkpt lat="44.78785" lon="1.84162">
        <ele>363.05</ele>
        <time>2019-10-30T07:43:40.001Z</time>
      </trkpt>
      <trkpt lat="44.78767" lon="1.84033">
        <ele>370.364</ele>
        <time>2019-10-30T07:44:13.001Z</time>
      </trkpt>
      <trkpt lat="44.7872" lon="1.83949">
        <ele>369.851</ele>
        <time>2019-10-30T07:44:43.001Z</time>
      </trkpt>
      <trkpt lat="44.78662" lon="1.83863">
        <ele>371.078</ele>
        <time>2019-10-30T07:45:13.001Z</time>
      </trkpt>
      <trkpt lat="44.78685" lon="1.83768">
        <ele>374.205</ele>
        <time>2019-10-30T07:45:46.001Z</time>
      </trkpt>
      <trkpt lat="44.78747" lon="1.83704">
        <ele>376.177</ele>
        <time>2019-10-30T07:46:16Z</time>
      </trkpt>
      <trkpt lat="44.7877" lon="1.83581">
        <ele>380</ele>
        <time>2019-10-30T07:46:49.001Z</time>
      </trkpt>
      <trkpt lat="44.78753" lon="1.83458">
        <ele>383.839</ele>
        <time>2019-10-30T07:47:19.001Z</time>
      </trkpt>
      <trkpt lat="44.78712" lon="1.83304">
        <ele>385.369</ele>
        <time>2019-10-30T07:47:49.001Z</time>
      </trkpt>
      <trkpt lat="44.78638" lon="1.83167">
        <ele>385.268</ele>
        <time>2019-10-30T07:48:22.001Z</time>
      </trkpt>
      <trkpt lat="44.78546" lon="1.83147">
        <ele>387.893</ele>
        <time>2019-10-30T07:48:52.001Z</time>
      </trkpt>
      <trkpt lat="44.78432" lon="1.83147">
        <ele>393.498</ele>
        <time>2019-10-30T07:49:25.001Z</time>
      </trkpt>
      <trkpt lat="44.7833" lon="1.83058">
        <ele>392.911</ele>
        <time>2019-10-30T07:49:55.001Z</time>
      </trkpt>
      <trkpt lat="44.78313" lon="1.82804">
        <ele>383.61</ele>
        <time>2019-10-30T07:50:25.001Z</time>
      </trkpt>
      <trkpt lat="44.78431" lon="1.82497">
        <ele>376.284</ele>
        <time>2019-10-30T07:50:58.001Z</time>
      </trkpt>
      <trkpt lat="44.78503" lon="1.82172">
        <ele>371.073</ele>
        <time>2019-10-30T07:51:28.001Z</time>
      </trkpt>
      <trkpt lat="44.78545" lon="1.81769">
        <ele>345.65</ele>
        <time>2019-10-30T07:52:01.001Z</time>
      </trkpt>
      <trkpt lat="44.78482" lon="1.81351">
        <ele>335.236</ele>
        <time>2019-10-30T07:52:31.001Z</time>
      </trkpt>
      <trkpt lat="44.7847" lon="1.81042">
        <ele>326.981</ele>
        <time>2019-10-30T07:53:04.001Z</time>
      </trkpt>
      <trkpt lat="44.78487" lon="1.80806">
        <ele>328.725</ele>
        <time>2019-10-30T07:53:34.001Z</time>
      </trkpt>
      <trkpt lat="44.78539" lon="1.80614">
        <ele>327.917</ele>
        <time>2019-10-30T07:54:04.001Z</time>
      </trkpt>
      <trkpt lat="44.78646" lon="1.80493">
        <ele>327.074</ele>
        <time>2019-10-30T07:54:37.001Z</time>
      </trkpt>
      <trkpt lat="44.78621" lon="1.8029">
        <ele>326.177</ele>
        <time>2019-10-30T07:55:07.001Z</time>
      </trkpt>
      <trkpt lat="44.78686" lon="1.80012">
        <ele>321.855</ele>
        <time>2019-10-30T07:55:40.001Z</time>
      </trkpt>
      <trkpt lat="44.78775" lon="1.79784">
        <ele>322.262</ele>
        <time>2019-10-30T07:56:10.001Z</time>
      </trkpt>
      <trkpt lat="44.78733" lon="1.7958">
        <ele>320.69</ele>
        <time>2019-10-30T07:56:40.001Z</time>
      </trkpt>
      <trkpt lat="44.78739" lon="1.79313">
        <ele>321.415</ele>
        <time>2019-10-30T07:57:13.001Z</time>
      </trkpt>
      <trkpt lat="44.78767" lon="1.79092">
        <ele>317.148</ele>
        <time>2019-10-30T07:57:43.001Z</time>
      </trkpt>
      <trkpt lat="44.78764" lon="1.78816">
        <ele>318.97</ele>
        <time>2019-10-30T07:58:16Z</time>
      </trkpt>
      <trkpt lat="44.78728" lon="1.78568">
        <ele>321.656</ele>
        <time>2019-10-30T07:58:46.001Z</time>
      </trkpt>
      <trkpt lat="44.78603" lon="1.78358">
        <ele>317.28</ele>
        <time>2019-10-30T07:59:16Z</time>
      </trkpt>
      <trkpt lat="44.78617" lon="1.7825">
        <ele>313.687</ele>
        <time>2019-10-30T07:59:49.001Z</time>
      </trkpt>
      <trkpt lat="44.78679" lon="1.78232">
        <ele>322.074</ele>
        <time>2019-10-30T08:00:28.001Z</time>
      </trkpt>
      <trkpt lat="44.78735" lon="1.78189">
        <ele>323.101</ele>
        <time>2019-10-30T08:01:07.001Z</time>
      </trkpt>
      <trkpt lat="44.78781" lon="1.78154">
        <ele>325.908</ele>
        <time>2019-10-30T08:01:37.001Z</time>
      </trkpt>
      <trkpt lat="44.78832" lon="1.78117">
        <ele>332.146</ele>
        <time>2019-10-30T08:02:07.001Z</time>
      </trkpt>
      <trkpt lat="44.78891" lon="1.78073">
        <ele>336.462</ele>
        <time>2019-10-30T08:02:40.001Z</time>
      </trkpt>
      <trkpt lat="44.78941" lon="1.78027">
        <ele>337.303</ele>
        <time>2019-10-30T08:03:10.001Z</time>
      </trkpt>
      <trkpt lat="44.78999" lon="1.77955">
        <ele>340.298</ele>
        <time>2019-10-30T08:03:43.001Z</time>
      </trkpt>
      <trkpt lat="44.79053" lon="1.77906">
        <ele>342.774</ele>
        <time>2019-10-30T08:04:13.001Z</time>
      </trkpt>
      <trkpt lat="44.79119" lon="1.77859">
        <ele>344.866</ele>
        <time>2019-10-30T08:04:46.001Z</time>
      </trkpt>
      <trkpt lat="44.79173" lon="1.77806">
        <ele>347.865</ele>
        <time>2019-10-30T08:05:16Z</time>
      </trkpt>
      <trkpt lat="44.7923" lon="1.77746">
        <ele>350.743</ele>
        <time>2019-10-30T08:05:46.001Z</time>
      </trkpt>
      <trkpt lat="44.79279" lon="1.77626">
        <ele>354.967</ele>
        <time>2019-10-30T08:06:19.001Z</time>
      </trkpt>
      <trkpt lat="44.79327" lon="1.77521">
        <ele>354.489</ele>
        <time>2019-10-30T08:06:49.001Z</time>
      </trkpt>
      <trkpt lat="44.79386" lon="1.77398">
        <ele>355.665</ele>
        <time>2019-10-30T08:07:22.001Z</time>
      </trkpt>
      <trkpt lat="44.79429" lon="1.77286">
        <ele>359.907</ele>
        <time>2019-10-30T08:07:52.001Z</time>
      </trkpt>
      <trkpt lat="44.79487" lon="1.77093">
        <ele>353.284</ele>
        <time>2019-10-30T08:08:22.001Z</time>
      </trkpt>
      <trkpt lat="44.79603" lon="1.76767">
        <ele>339.007</ele>
        <time>2019-10-30T08:08:55.001Z</time>
      </trkpt>
      <trkpt lat="44.79678" lon="1.76431">
        <ele>319.508</ele>
        <time>2019-10-30T08:09:25.001Z</time>
      </trkpt>
      <trkpt lat="44.79766" lon="1.76136">
        <ele>307.943</ele>
        <time>2019-10-30T08:09:58.001Z</time>
      </trkpt>
      <trkpt lat="44.79819" lon="1.76024">
        <ele>303.574</ele>
        <time>2019-10-30T08:10:28.001Z</time>
      </trkpt>
      <trkpt lat="44.79764" lon="1.75875">
        <ele>308.109</ele>
        <time>2019-10-30T08:10:58.001Z</time>
      </trkpt>
      <trkpt lat="44.79783" lon="1.75668">
        <ele>308.044</ele>
        <time>2019-10-30T08:11:31.001Z</time>
      </trkpt>
      <trkpt lat="44.79812" lon="1.75594">
        <ele>308.598</ele>
        <time>2019-10-30T08:12:01.001Z</time>
      </trkpt>
      <trkpt lat="44.79836" lon="1.75512">
        <ele>312.874</ele>
        <time>2019-10-30T08:12:40.001Z</time>
      </trkpt>
      <trkpt lat="44.79866" lon="1.75441">
        <ele>320.908</ele>
        <time>2019-10-30T08:13:19.001Z</time>
      </trkpt>
      <trkpt lat="44.79899" lon="1.75354">
        <ele>326.984</ele>
        <time>2019-10-30T08:13:55.001Z</time>
      </trkpt>
      <trkpt lat="44.79924" lon="1.75266">
        <ele>330.578</ele>
        <time>2019-10-30T08:14:25.001Z</time>
      </trkpt>
      <trkpt lat="44.79963" lon="1.75173">
        <ele>333.67</ele>
        <time>2019-10-30T08:14:55.001Z</time>
      </trkpt>
      <trkpt lat="44.79998" lon="1.75088">
        <ele>335.365</ele>
        <time>2019-10-30T08:15:28.001Z</time>
      </trkpt>
      <trkpt lat="44.80045" lon="1.75015">
        <ele>341.528</ele>
        <time>2019-10-30T08:15:58.001Z</time>
      </trkpt>
      <trkpt lat="44.80095" lon="1.74926">
        <ele>341.802</ele>
        <time>2019-10-30T08:16:31.001Z</time>
      </trkpt>
      <trkpt lat="44.8015" lon="1.74804">
        <ele>340.263</ele>
        <time>2019-10-30T08:17:01.001Z</time>
      </trkpt>
      <trkpt lat="44.80186" lon="1.74682">
        <ele>336.239</ele>
        <time>2019-10-30T08:17:31.001Z</time>
      </trkpt>
      <trkpt lat="44.80217" lon="1.7457">
        <ele>339.949</ele>
        <time>2019-10-30T08:18:04.001Z</time>
      </trkpt>
      <trkpt lat="44.80263" lon="1.74399">
        <ele>338.728</ele>
        <time>2019-10-30T08:18:34.001Z</time>
      </trkpt>
      <trkpt lat="44.80423" lon="1.74218">
        <ele>335.354</ele>
        <time>2019-10-30T08:19:07.001Z</time>
      </trkpt>
      <trkpt lat="44.80456" lon="1.74152">
        <ele>338.598</ele>
        <time>2019-10-30T08:19:43.001Z</time>
      </trkpt>
      <trkpt lat="44.8049" lon="1.7409">
        <ele>342.538</ele>
        <time>2019-10-30T08:20:16Z</time>
      </trkpt>
      <trkpt lat="44.80512" lon="1.74009">
        <ele>345.575</ele>
        <time>2019-10-30T08:20:49.001Z</time>
      </trkpt>
      <trkpt lat="44.80464" lon="1.73936">
        <ele>348.848</ele>
        <time>2019-10-30T08:22:43.001Z</time>
      </trkpt>
      <trkpt lat="44.80433" lon="1.73862">
        <ele>349.188</ele>
        <time>2019-10-30T08:23:28.001Z</time>
      </trkpt>
      <trkpt lat="44.80414" lon="1.73735">
        <ele>350.483</ele>
        <time>2019-10-30T08:23:58.001Z</time>
      </trkpt>
      <trkpt lat="44.8034" lon="1.73538">
        <ele>350.329</ele>
        <time>2019-10-30T08:24:28.001Z</time>
      </trkpt>
      <trkpt lat="44.80356" lon="1.73279">
        <ele>333.668</ele>
        <time>2019-10-30T08:25:01.001Z</time>
      </trkpt>
      <trkpt lat="44.80404" lon="1.73241">
        <ele>333.705</ele>
        <time>2019-10-30T08:25:31.001Z</time>
      </trkpt>
      <trkpt lat="44.80448" lon="1.73182">
        <ele>335.551</ele>
        <time>2019-10-30T08:26:07.001Z</time>
      </trkpt>
      <trkpt lat="44.80497" lon="1.73117">
        <ele>343.623</ele>
        <time>2019-10-30T08:26:52.001Z</time>
      </trkpt>
      <trkpt lat="44.80531" lon="1.73037">
        <ele>353.312</ele>
        <time>2019-10-30T08:27:40.001Z</time>
      </trkpt>
      <trkpt lat="44.80502" lon="1.72961">
        <ele>361.479</ele>
        <time>2019-10-30T08:28:16Z</time>
      </trkpt>
      <trkpt lat="44.80542" lon="1.7275">
        <ele>358.328</ele>
        <time>2019-10-30T08:28:46.001Z</time>
      </trkpt>
      <trkpt lat="44.80436" lon="1.72676">
        <ele>344.68</ele>
        <time>2019-10-30T08:29:19.001Z</time>
      </trkpt>
      <trkpt lat="44.80396" lon="1.72634">
        <ele>349.215</ele>
        <time>2019-10-30T08:29:49.001Z</time>
      </trkpt>
      <trkpt lat="44.80367" lon="1.72508">
        <ele>354.408</ele>
        <time>2019-10-30T08:30:22.001Z</time>
      </trkpt>
      <trkpt lat="44.80277" lon="1.72232">
        <ele>349.399</ele>
        <time>2019-10-30T08:30:52.001Z</time>
      </trkpt>
      <trkpt lat="44.80199" lon="1.71939">
        <ele>337.271</ele>
        <time>2019-10-30T08:31:22.001Z</time>
      </trkpt>
      <trkpt lat="44.80309" lon="1.71605">
        <ele>324.502</ele>
        <time>2019-10-30T08:31:55.001Z</time>
      </trkpt>
      <trkpt lat="44.80363" lon="1.71458">
        <ele>322.309</ele>
        <time>2019-10-30T08:32:25.001Z</time>
      </trkpt>
      <trkpt lat="44.80371" lon="1.7124">
        <ele>320.703</ele>
        <time>2019-10-30T08:32:58.001Z</time>
      </trkpt>
      <trkpt lat="44.80373" lon="1.71031">
        <ele>322.635</ele>
        <time>2019-10-30T08:33:28.001Z</time>
      </trkpt>
      <trkpt lat="44.8045" lon="1.70886">
        <ele>325.377</ele>
        <time>2019-10-30T08:33:58.001Z</time>
      </trkpt>
      <trkpt lat="44.80525" lon="1.7067">
        <ele>324.599</ele>
        <time>2019-10-30T08:34:31.001Z</time>
      </trkpt>
      <trkpt lat="44.80584" lon="1.70398">
        <ele>319.158</ele>
        <time>2019-10-30T08:35:01.001Z</time>
      </trkpt>
      <trkpt lat="44.80536" lon="1.70043">
        <ele>298.636</ele>
        <time>2019-10-30T08:35:34.001Z</time>
      </trkpt>
      <trkpt lat="44.80649" lon="1.69829">
        <ele>285.016</ele>
        <time>2019-10-30T08:36:04.001Z</time>
      </trkpt>
      <trkpt lat="44.80681" lon="1.69665">
        <ele>283.826</ele>
        <time>2019-10-30T08:36:37.001Z</time>
      </trkpt>
      <trkpt lat="44.80688" lon="1.6958">
        <ele>292.882</ele>
        <time>2019-10-30T08:37:07.001Z</time>
      </trkpt>
      <trkpt lat="44.8055" lon="1.69532">
        <ele>289.315</ele>
        <time>2019-10-30T08:37:40.001Z</time>
      </trkpt>
      <trkpt lat="44.8052" lon="1.694">
        <ele>290.948</ele>
        <time>2019-10-30T08:38:13.001Z</time>
      </trkpt>
      <trkpt lat="44.80492" lon="1.69328">
        <ele>292.525</ele>
        <time>2019-10-30T08:38:43.001Z</time>
      </trkpt>
      <trkpt lat="44.80453" lon="1.69136">
        <ele>284.119</ele>
        <time>2019-10-30T08:39:16Z</time>
      </trkpt>
      <trkpt lat="44.80488" lon="1.6882">
        <ele>277.708</ele>
        <time>2019-10-30T08:39:46.001Z</time>
      </trkpt>
      <trkpt lat="44.80515" lon="1.68588">
        <ele>275.125</ele>
        <time>2019-10-30T08:40:16Z</time>
      </trkpt>
      <trkpt lat="44.80487" lon="1.68261">
        <ele>273.057</ele>
        <time>2019-10-30T08:40:49.001Z</time>
      </trkpt>
      <trkpt lat="44.80444" lon="1.68042">
        <ele>273.546</ele>
        <time>2019-10-30T08:41:19.001Z</time>
      </trkpt>
      <trkpt lat="44.8047" lon="1.67813">
        <ele>272.424</ele>
        <time>2019-10-30T08:41:52.001Z</time>
      </trkpt>
      <trkpt lat="44.80503" lon="1.67596">
        <ele>270.019</ele>
        <time>2019-10-30T08:42:22.001Z</time>
      </trkpt>
      <trkpt lat="44.80482" lon="1.67406">
        <ele>276.412</ele>
        <time>2019-10-30T08:42:52.001Z</time>
      </trkpt>
      <trkpt lat="44.80467" lon="1.67316">
        <ele>281.403</ele>
        <time>2019-10-30T08:43:25.001Z</time>
      </trkpt>
      <trkpt lat="44.80431" lon="1.67219">
        <ele>286.724</ele>
        <time>2019-10-30T08:43:55.001Z</time>
      </trkpt>
      <trkpt lat="44.80441" lon="1.67048">
        <ele>284.125</ele>
        <time>2019-10-30T08:44:28.001Z</time>
      </trkpt>
      <trkpt lat="44.80415" lon="1.6693">
        <ele>282.94</ele>
        <time>2019-10-30T08:44:58.001Z</time>
      </trkpt>
      <trkpt lat="44.80374" lon="1.66783">
        <ele>279.25</ele>
        <time>2019-10-30T08:45:28.001Z</time>
      </trkpt>
      <trkpt lat="44.80329" lon="1.66538">
        <ele>276.583</ele>
        <time>2019-10-30T08:46:01.001Z</time>
      </trkpt>
      <trkpt lat="44.8034" lon="1.66384">
        <ele>281.579</ele>
        <time>2019-10-30T08:46:31.001Z</time>
      </trkpt>
      <trkpt lat="44.80353" lon="1.66196">
        <ele>281.227</ele>
        <time>2019-10-30T08:47:04.001Z</time>
      </trkpt>
      <trkpt lat="44.80336" lon="1.65909">
        <ele>272.122</ele>
        <time>2019-10-30T08:47:34.001Z</time>
      </trkpt>
      <trkpt lat="44.80306" lon="1.65604">
        <ele>267.259</ele>
        <time>2019-10-30T08:48:07.001Z</time>
      </trkpt>
      <trkpt lat="44.80328" lon="1.65427">
        <ele>272.144</ele>
        <time>2019-10-30T08:48:37.001Z</time>
      </trkpt>
      <trkpt lat="44.8033" lon="1.65331">
        <ele>277.998</ele>
        <time>2019-10-30T08:49:07.001Z</time>
      </trkpt>
      <trkpt lat="44.80318" lon="1.65186">
        <ele>276.834</ele>
        <time>2019-10-30T08:49:40.001Z</time>
      </trkpt>
      <trkpt lat="44.80294" lon="1.64995">
        <ele>275.761</ele>
        <time>2019-10-30T08:50:10.001Z</time>
      </trkpt>
      <trkpt lat="44.80329" lon="1.6463">
        <ele>265.961</ele>
        <time>2019-10-30T08:50:43.001Z</time>
      </trkpt>
      <trkpt lat="44.80361" lon="1.64376">
        <ele>266.102</ele>
        <time>2019-10-30T08:51:13.001Z</time>
      </trkpt>
      <trkpt lat="44.80375" lon="1.64273">
        <ele>271.763</ele>
        <time>2019-10-30T08:51:43.001Z</time>
      </trkpt>
      <trkpt lat="44.80387" lon="1.64172">
        <ele>280.923</ele>
        <time>2019-10-30T08:52:16Z</time>
      </trkpt>
      <trkpt lat="44.80399" lon="1.64074">
        <ele>284.784</ele>
        <time>2019-10-30T08:52:46.001Z</time>
      </trkpt>
      <trkpt lat="44.80411" lon="1.63948">
        <ele>281.708</ele>
        <time>2019-10-30T08:53:19.001Z</time>
      </trkpt>
      <trkpt lat="44.80404" lon="1.63807">
        <ele>281.457</ele>
        <time>2019-10-30T08:53:49.001Z</time>
      </trkpt>
      <trkpt lat="44.80437" lon="1.63537">
        <ele>274.723</ele>
        <time>2019-10-30T08:54:19.001Z</time>
      </trkpt>
      <trkpt lat="44.80432" lon="1.63094">
        <ele>259.575</ele>
        <time>2019-10-30T08:54:52.001Z</time>
      </trkpt>
      <trkpt lat="44.80437" lon="1.62783">
        <ele>251.259</ele>
        <time>2019-10-30T08:55:22.001Z</time>
      </trkpt>
      <trkpt lat="44.80472" lon="1.62714">
        <ele>253.165</ele>
        <time>2019-10-30T08:56:49.001Z</time>
      </trkpt>
      <trkpt lat="44.80475" lon="1.62691">
        <ele>252.379</ele>
        <time>2019-10-30T08:58:52.001Z</time>
      </trkpt>
      <trkpt lat="44.80474" lon="1.62676">
        <ele>253.181</ele>
        <time>2019-10-30T09:02:28.001Z</time>
      </trkpt>
      <trkpt lat="44.8041" lon="1.62705">
        <ele>258.239</ele>
        <time>2019-10-30T09:05:22.001Z</time>
      </trkpt>
      <trkpt lat="44.80366" lon="1.62693">
        <ele>256.577</ele>
        <time>2019-10-30T09:10:10.001Z</time>
      </trkpt>
      <trkpt lat="44.80471" lon="1.62698">
        <ele>260.021</ele>
        <time>2019-10-30T09:10:46.001Z</time>
      </trkpt>
      <trkpt lat="44.80486" lon="1.62654">
        <ele>260.998</ele>
        <time>2019-10-30T09:14:43.001Z</time>
      </trkpt>
      <trkpt lat="44.805" lon="1.62525">
        <ele>260.726</ele>
        <time>2019-10-30T09:15:16Z</time>
      </trkpt>
      <trkpt lat="44.80489" lon="1.62405">
        <ele>260.811</ele>
        <time>2019-10-30T09:15:46.001Z</time>
      </trkpt>
      <trkpt lat="44.80471" lon="1.62274">
        <ele>261.092</ele>
        <time>2019-10-30T09:16:16Z</time>
      </trkpt>
      <trkpt lat="44.80424" lon="1.62175">
        <ele>261.281</ele>
        <time>2019-10-30T09:16:49.001Z</time>
      </trkpt>
      <trkpt lat="44.80376" lon="1.62107">
        <ele>263.811</ele>
        <time>2019-10-30T09:17:19.001Z</time>
      </trkpt>
      <trkpt lat="44.80434" lon="1.62178">
        <ele>261.58</ele>
        <time>2019-10-30T09:18:43.001Z</time>
      </trkpt>
      <trkpt lat="44.80474" lon="1.6233">
        <ele>260.155</ele>
        <time>2019-10-30T09:19:13.001Z</time>
      </trkpt>
      <trkpt lat="44.80557" lon="1.62401">
        <ele>260.009</ele>
        <time>2019-10-30T09:19:43.001Z</time>
      </trkpt>
      <trkpt lat="44.80658" lon="1.62277">
        <ele>261.45</ele>
        <time>2019-10-30T09:20:16Z</time>
      </trkpt>
      <trkpt lat="44.8081" lon="1.62051">
        <ele>254.999</ele>
        <time>2019-10-30T09:20:46.001Z</time>
      </trkpt>
      <trkpt lat="44.80926" lon="1.61763">
        <ele>250.279</ele>
        <time>2019-10-30T09:21:19.001Z</time>
      </trkpt>
      <trkpt lat="44.80932" lon="1.61604">
        <ele>252.863</ele>
        <time>2019-10-30T09:21:49.001Z</time>
      </trkpt>
      <trkpt lat="44.80978" lon="1.61386">
        <ele>253.384</ele>
        <time>2019-10-30T09:22:19.001Z</time>
      </trkpt>
      <trkpt lat="44.81037" lon="1.61131">
        <ele>251.814</ele>
        <time>2019-10-30T09:22:52.001Z</time>
      </trkpt>
      <trkpt lat="44.81074" lon="1.61024">
        <ele>255.126</ele>
        <time>2019-10-30T09:23:22.001Z</time>
      </trkpt>
      <trkpt lat="44.81098" lon="1.60836">
        <ele>257.868</ele>
        <time>2019-10-30T09:23:55.001Z</time>
      </trkpt>
      <trkpt lat="44.81153" lon="1.60717">
        <ele>259.467</ele>
        <time>2019-10-30T09:24:25.001Z</time>
      </trkpt>
      <trkpt lat="44.81184" lon="1.60549">
        <ele>261.778</ele>
        <time>2019-10-30T09:24:58.001Z</time>
      </trkpt>
      <trkpt lat="44.81205" lon="1.60478">
        <ele>266.46</ele>
        <time>2019-10-30T09:25:31.001Z</time>
      </trkpt>
      <trkpt lat="44.81252" lon="1.60425">
        <ele>271.841</ele>
        <time>2019-10-30T09:26:01.001Z</time>
      </trkpt>
      <trkpt lat="44.81308" lon="1.60368">
        <ele>272.979</ele>
        <time>2019-10-30T09:26:34.001Z</time>
      </trkpt>
      <trkpt lat="44.8136" lon="1.60315">
        <ele>278.844</ele>
        <time>2019-10-30T09:27:04.001Z</time>
      </trkpt>
      <trkpt lat="44.81427" lon="1.60278">
        <ele>281.306</ele>
        <time>2019-10-30T09:27:37.001Z</time>
      </trkpt>
      <trkpt lat="44.81488" lon="1.60261">
        <ele>284.33</ele>
        <time>2019-10-30T09:28:07.001Z</time>
      </trkpt>
      <trkpt lat="44.81546" lon="1.60243">
        <ele>288.388</ele>
        <time>2019-10-30T09:28:37.001Z</time>
      </trkpt>
      <trkpt lat="44.81614" lon="1.60234">
        <ele>289.641</ele>
        <time>2019-10-30T09:29:10.001Z</time>
      </trkpt>
      <trkpt lat="44.81694" lon="1.60244">
        <ele>291.053</ele>
        <time>2019-10-30T09:29:40.001Z</time>
      </trkpt>
      <trkpt lat="44.81776" lon="1.60258">
        <ele>294.803</ele>
        <time>2019-10-30T09:30:13.001Z</time>
      </trkpt>
      <trkpt lat="44.81897" lon="1.60325">
        <ele>290.368</ele>
        <time>2019-10-30T09:30:43.001Z</time>
      </trkpt>
      <trkpt lat="44.8204" lon="1.60411">
        <ele>289.18</ele>
        <time>2019-10-30T09:31:13.001Z</time>
      </trkpt>
      <trkpt lat="44.82157" lon="1.60292">
        <ele>292.831</ele>
        <time>2019-10-30T09:31:46.001Z</time>
      </trkpt>
      <trkpt lat="44.82199" lon="1.60213">
        <ele>296.724</ele>
        <time>2019-10-30T09:32:16Z</time>
      </trkpt>
      <trkpt lat="44.82247" lon="1.60117">
        <ele>306.808</ele>
        <time>2019-10-30T09:32:49.001Z</time>
      </trkpt>
      <trkpt lat="44.82304" lon="1.60042">
        <ele>307.72</ele>
        <time>2019-10-30T09:33:19.001Z</time>
      </trkpt>
      <trkpt lat="44.82369" lon="1.60024">
        <ele>308.334</ele>
        <time>2019-10-30T09:33:49.001Z</time>
      </trkpt>
      <trkpt lat="44.82446" lon="1.59995">
        <ele>311.949</ele>
        <time>2019-10-30T09:34:22.001Z</time>
      </trkpt>
      <trkpt lat="44.82514" lon="1.59933">
        <ele>312.237</ele>
        <time>2019-10-30T09:34:52.001Z</time>
      </trkpt>
      <trkpt lat="44.82539" lon="1.59795">
        <ele>314.121</ele>
        <time>2019-10-30T09:35:25.001Z</time>
      </trkpt>
      <trkpt lat="44.82578" lon="1.59706">
        <ele>317.49</ele>
        <time>2019-10-30T09:35:55.001Z</time>
      </trkpt>
      <trkpt lat="44.82637" lon="1.59621">
        <ele>322.663</ele>
        <time>2019-10-30T09:36:28.001Z</time>
      </trkpt>
      <trkpt lat="44.8267" lon="1.59414">
        <ele>315.626</ele>
        <time>2019-10-30T09:36:58.001Z</time>
      </trkpt>
      <trkpt lat="44.82548" lon="1.59167">
        <ele>308.411</ele>
        <time>2019-10-30T09:37:28.001Z</time>
      </trkpt>
      <trkpt lat="44.82455" lon="1.58887">
        <ele>303.904</ele>
        <time>2019-10-30T09:38:01.001Z</time>
      </trkpt>
      <trkpt lat="44.82425" lon="1.58749">
        <ele>304.031</ele>
        <time>2019-10-30T09:38:31.001Z</time>
      </trkpt>
      <trkpt lat="44.82273" lon="1.58491">
        <ele>299.521</ele>
        <time>2019-10-30T09:39:04.001Z</time>
      </trkpt>
      <trkpt lat="44.82169" lon="1.58098">
        <ele>282.82</ele>
        <time>2019-10-30T09:39:34.001Z</time>
      </trkpt>
      <trkpt lat="44.82229" lon="1.57769">
        <ele>269.809</ele>
        <time>2019-10-30T09:40:04.001Z</time>
      </trkpt>
      <trkpt lat="44.82329" lon="1.5751">
        <ele>267.774</ele>
        <time>2019-10-30T09:40:37.001Z</time>
      </trkpt>
      <trkpt lat="44.82468" lon="1.57169">
        <ele>257.933</ele>
        <time>2019-10-30T09:41:07.001Z</time>
      </trkpt>
      <trkpt lat="44.82684" lon="1.56923">
        <ele>248.605</ele>
        <time>2019-10-30T09:41:40.001Z</time>
      </trkpt>
      <trkpt lat="44.82958" lon="1.56711">
        <ele>241.132</ele>
        <time>2019-10-30T09:42:10.001Z</time>
      </trkpt>
      <trkpt lat="44.8316" lon="1.56551">
        <ele>236.242</ele>
        <time>2019-10-30T09:42:40.001Z</time>
      </trkpt>
      <trkpt lat="44.83317" lon="1.56345">
        <ele>231.768</ele>
        <time>2019-10-30T09:43:13.001Z</time>
      </trkpt>
      <trkpt lat="44.83499" lon="1.56031">
        <ele>218.055</ele>
        <time>2019-10-30T09:43:43.001Z</time>
      </trkpt>
      <trkpt lat="44.83824" lon="1.55909">
        <ele>204.72</ele>
        <time>2019-10-30T09:44:16Z</time>
      </trkpt>
      <trkpt lat="44.8411" lon="1.55786">
        <ele>179.124</ele>
        <time>2019-10-30T09:44:46.001Z</time>
      </trkpt>
      <trkpt lat="44.84263" lon="1.55668">
        <ele>155.736</ele>
        <time>2019-10-30T09:45:19.001Z</time>
      </trkpt>
      <trkpt lat="44.84248" lon="1.55597">
        <ele>151.905</ele>
        <time>2019-10-30T10:09:43.001Z</time>
      </trkpt>
      <trkpt lat="44.84296" lon="1.55296">
        <ele>137.847</ele>
        <time>2019-10-30T10:10:13.001Z</time>
      </trkpt>
      <trkpt lat="44.84365" lon="1.55587">
        <ele>113.269</ele>
        <time>2019-10-30T10:10:46.001Z</time>
      </trkpt>
      <trkpt lat="44.84404" lon="1.55671">
        <ele>102.012</ele>
        <time>2019-10-30T10:12:34.001Z</time>
      </trkpt>
      <trkpt lat="44.84445" lon="1.55688">
        <ele>107.236</ele>
        <time>2019-10-30T10:19:55.001Z</time>
      </trkpt>
      <trkpt lat="44.8457" lon="1.55767">
        <ele>107.015</ele>
        <time>2019-10-30T10:20:25.001Z</time>
      </trkpt>
      <trkpt lat="44.84621" lon="1.55938">
        <ele>106.742</ele>
        <time>2019-10-30T10:20:55.001Z</time>
      </trkpt>
      <trkpt lat="44.84696" lon="1.56142">
        <ele>109.899</ele>
        <time>2019-10-30T10:21:28.001Z</time>
      </trkpt>
      <trkpt lat="44.84732" lon="1.56256">
        <ele>112.581</ele>
        <time>2019-10-30T10:21:58.001Z</time>
      </trkpt>
      <trkpt lat="44.84805" lon="1.56317">
        <ele>116.159</ele>
        <time>2019-10-30T10:22:31.001Z</time>
      </trkpt>
      <trkpt lat="44.84984" lon="1.56392">
        <ele>111.929</ele>
        <time>2019-10-30T10:23:01.001Z</time>
      </trkpt>
      <trkpt lat="44.85141" lon="1.56496">
        <ele>105.743</ele>
        <time>2019-10-30T10:23:31.001Z</time>
      </trkpt>
      <trkpt lat="44.85296" lon="1.56566">
        <ele>105.94</ele>
        <time>2019-10-30T10:24:04.001Z</time>
      </trkpt>
      <trkpt lat="44.85454" lon="1.5659">
        <ele>107.241</ele>
        <time>2019-10-30T10:24:34.001Z</time>
      </trkpt>
      <trkpt lat="44.85609" lon="1.5661">
        <ele>110.153</ele>
        <time>2019-10-30T10:25:07.001Z</time>
      </trkpt>
      <trkpt lat="44.85776" lon="1.56624">
        <ele>110.875</ele>
        <time>2019-10-30T10:25:37.001Z</time>
      </trkpt>
      <trkpt lat="44.85943" lon="1.5661">
        <ele>106.541</ele>
        <time>2019-10-30T10:26:07.001Z</time>
      </trkpt>
      <trkpt lat="44.86096" lon="1.5649">
        <ele>106.646</ele>
        <time>2019-10-30T10:26:40.001Z</time>
      </trkpt>
      <trkpt lat="44.86226" lon="1.56391">
        <ele>107.869</ele>
        <time>2019-10-30T10:27:10.001Z</time>
      </trkpt>
      <trkpt lat="44.86342" lon="1.56234">
        <ele>105.526</ele>
        <time>2019-10-30T10:27:43.001Z</time>
      </trkpt>
      <trkpt lat="44.86449" lon="1.56183">
        <ele>110.728</ele>
        <time>2019-10-30T10:28:13.001Z</time>
      </trkpt>
      <trkpt lat="44.86599" lon="1.56244">
        <ele>112.708</ele>
        <time>2019-10-30T10:28:46.001Z</time>
      </trkpt>
      <trkpt lat="44.86719" lon="1.56421">
        <ele>113.335</ele>
        <time>2019-10-30T10:29:16Z</time>
      </trkpt>
      <trkpt lat="44.86806" lon="1.56612">
        <ele>118.879</ele>
        <time>2019-10-30T10:29:46.001Z</time>
      </trkpt>
      <trkpt lat="44.86849" lon="1.56861">
        <ele>108.329</ele>
        <time>2019-10-30T10:30:19.001Z</time>
      </trkpt>
      <trkpt lat="44.86842" lon="1.57051">
        <ele>108.092</ele>
        <time>2019-10-30T10:30:49.001Z</time>
      </trkpt>
      <trkpt lat="44.86845" lon="1.5728">
        <ele>116.805</ele>
        <time>2019-10-30T10:31:22.001Z</time>
      </trkpt>
      <trkpt lat="44.86849" lon="1.5749">
        <ele>120.895</ele>
        <time>2019-10-30T10:31:52.001Z</time>
      </trkpt>
      <trkpt lat="44.8679" lon="1.57682">
        <ele>112.777</ele>
        <time>2019-10-30T10:32:22.001Z</time>
      </trkpt>
      <trkpt lat="44.86708" lon="1.57929">
        <ele>106.288</ele>
        <time>2019-10-30T10:32:55.001Z</time>
      </trkpt>
      <trkpt lat="44.86791" lon="1.58105">
        <ele>110.611</ele>
        <time>2019-10-30T10:33:25.001Z</time>
      </trkpt>
      <trkpt lat="44.86946" lon="1.58214">
        <ele>104.492</ele>
        <time>2019-10-30T10:33:58.001Z</time>
      </trkpt>
      <trkpt lat="44.87059" lon="1.58246">
        <ele>108.094</ele>
        <time>2019-10-30T10:34:28.001Z</time>
      </trkpt>
      <trkpt lat="44.87138" lon="1.58178">
        <ele>113.748</ele>
        <time>2019-10-30T10:34:58.001Z</time>
      </trkpt>
      <trkpt lat="44.87253" lon="1.58145">
        <ele>115.017</ele>
        <time>2019-10-30T10:35:31.001Z</time>
      </trkpt>
      <trkpt lat="44.87355" lon="1.58235">
        <ele>112.815</ele>
        <time>2019-10-30T10:36:01.001Z</time>
      </trkpt>
      <trkpt lat="44.87435" lon="1.58089">
        <ele>113.084</ele>
        <time>2019-10-30T10:36:34.001Z</time>
      </trkpt>
      <trkpt lat="44.87507" lon="1.57938">
        <ele>112.897</ele>
        <time>2019-10-30T10:37:04.001Z</time>
      </trkpt>
      <trkpt lat="44.87617" lon="1.57754">
        <ele>108.326</ele>
        <time>2019-10-30T10:37:34.001Z</time>
      </trkpt>
      <trkpt lat="44.87678" lon="1.57542">
        <ele>107.688</ele>
        <time>2019-10-30T10:38:07.001Z</time>
      </trkpt>
      <trkpt lat="44.87683" lon="1.57322">
        <ele>107.676</ele>
        <time>2019-10-30T10:38:37.001Z</time>
      </trkpt>
      <trkpt lat="44.87772" lon="1.57085">
        <ele>108.578</ele>
        <time>2019-10-30T10:39:10.001Z</time>
      </trkpt>
      <trkpt lat="44.87844" lon="1.56891">
        <ele>116.344</ele>
        <time>2019-10-30T10:39:40.001Z</time>
      </trkpt>
      <trkpt lat="44.87921" lon="1.56683">
        <ele>112.983</ele>
        <time>2019-10-30T10:40:13.001Z</time>
      </trkpt>
      <trkpt lat="44.88005" lon="1.56473">
        <ele>110.687</ele>
        <time>2019-10-30T10:40:43.001Z</time>
      </trkpt>
      <trkpt lat="44.88068" lon="1.56301">
        <ele>111.082</ele>
        <time>2019-10-30T10:41:13.001Z</time>
      </trkpt>
      <trkpt lat="44.88113" lon="1.56181">
        <ele>114.417</ele>
        <time>2019-10-30T10:41:46.001Z</time>
      </trkpt>
      <trkpt lat="44.88151" lon="1.56106">
        <ele>118.93</ele>
        <time>2019-10-30T10:42:16Z</time>
      </trkpt>
      <trkpt lat="44.88176" lon="1.56185">
        <ele>120.671</ele>
        <time>2019-10-30T10:42:49.001Z</time>
      </trkpt>
      <trkpt lat="44.88199" lon="1.56274">
        <ele>124.306</ele>
        <time>2019-10-30T10:43:19.001Z</time>
      </trkpt>
      <trkpt lat="44.882" lon="1.56367">
        <ele>130.891</ele>
        <time>2019-10-30T10:43:49.001Z</time>
      </trkpt>
      <trkpt lat="44.88187" lon="1.56464">
        <ele>136.244</ele>
        <time>2019-10-30T10:44:22.001Z</time>
      </trkpt>
      <trkpt lat="44.88214" lon="1.56544">
        <ele>138.595</ele>
        <time>2019-10-30T10:44:52.001Z</time>
      </trkpt>
      <trkpt lat="44.88288" lon="1.5655">
        <ele>141.642</ele>
        <time>2019-10-30T10:45:25.001Z</time>
      </trkpt>
      <trkpt lat="44.88353" lon="1.56528">
        <ele>144.296</ele>
        <time>2019-10-30T10:45:55.001Z</time>
      </trkpt>
      <trkpt lat="44.88414" lon="1.56496">
        <ele>148.962</ele>
        <time>2019-10-30T10:46:25.001Z</time>
      </trkpt>
      <trkpt lat="44.88469" lon="1.56439">
        <ele>150.066</ele>
        <time>2019-10-30T10:46:58.001Z</time>
      </trkpt>
      <trkpt lat="44.88523" lon="1.56387">
        <ele>159.505</ele>
        <time>2019-10-30T10:47:28.001Z</time>
      </trkpt>
      <trkpt lat="44.88578" lon="1.56325">
        <ele>164.42</ele>
        <time>2019-10-30T10:48:01.001Z</time>
      </trkpt>
      <trkpt lat="44.88617" lon="1.5625">
        <ele>169.447</ele>
        <time>2019-10-30T10:48:31.001Z</time>
      </trkpt>
      <trkpt lat="44.88663" lon="1.5617">
        <ele>173.178</ele>
        <time>2019-10-30T10:49:04.001Z</time>
      </trkpt>
      <trkpt lat="44.88702" lon="1.56099">
        <ele>177.533</ele>
        <time>2019-10-30T10:49:34.001Z</time>
      </trkpt>
      <trkpt lat="44.88732" lon="1.56023">
        <ele>182.779</ele>
        <time>2019-10-30T10:50:04.001Z</time>
      </trkpt>
      <trkpt lat="44.88769" lon="1.55942">
        <ele>180.713</ele>
        <time>2019-10-30T10:50:37.001Z</time>
      </trkpt>
      <trkpt lat="44.8879" lon="1.55851">
        <ele>181.523</ele>
        <time>2019-10-30T10:51:07.001Z</time>
      </trkpt>
      <trkpt lat="44.88814" lon="1.5576">
        <ele>186.472</ele>
        <time>2019-10-30T10:51:40.001Z</time>
      </trkpt>
      <trkpt lat="44.88834" lon="1.55664">
        <ele>188.239</ele>
        <time>2019-10-30T10:52:10.001Z</time>
      </trkpt>
      <trkpt lat="44.88835" lon="1.55576">
        <ele>193.129</ele>
        <time>2019-10-30T10:52:40.001Z</time>
      </trkpt>
      <trkpt lat="44.88877" lon="1.55502">
        <ele>197.55</ele>
        <time>2019-10-30T10:53:13.001Z</time>
      </trkpt>
      <trkpt lat="44.88932" lon="1.55453">
        <ele>205.461</ele>
        <time>2019-10-30T10:53:43.001Z</time>
      </trkpt>
      <trkpt lat="44.88992" lon="1.55419">
        <ele>214.936</ele>
        <time>2019-10-30T10:54:16Z</time>
      </trkpt>
      <trkpt lat="44.89029" lon="1.55343">
        <ele>212.765</ele>
        <time>2019-10-30T10:54:46.001Z</time>
      </trkpt>
      <trkpt lat="44.8904" lon="1.55256">
        <ele>210.914</ele>
        <time>2019-10-30T10:55:16Z</time>
      </trkpt>
      <trkpt lat="44.89067" lon="1.55172">
        <ele>215.348</ele>
        <time>2019-10-30T10:55:49.001Z</time>
      </trkpt>
      <trkpt lat="44.89105" lon="1.551">
        <ele>217.269</ele>
        <time>2019-10-30T10:56:19.001Z</time>
      </trkpt>
      <trkpt lat="44.89131" lon="1.55014">
        <ele>221.397</ele>
        <time>2019-10-30T10:56:52.001Z</time>
      </trkpt>
      <trkpt lat="44.89133" lon="1.54921">
        <ele>226.821</ele>
        <time>2019-10-30T10:57:22.002Z</time>
      </trkpt>
      <trkpt lat="44.8913" lon="1.5482">
        <ele>228.623</ele>
        <time>2019-10-30T10:57:52.001Z</time>
      </trkpt>
      <trkpt lat="44.89155" lon="1.54721">
        <ele>226.509</ele>
        <time>2019-10-30T10:58:25.001Z</time>
      </trkpt>
      <trkpt lat="44.8918" lon="1.54635">
        <ele>234.742</ele>
        <time>2019-10-30T10:58:55.001Z</time>
      </trkpt>
      <trkpt lat="44.89232" lon="1.54553">
        <ele>234.031</ele>
        <time>2019-10-30T10:59:28.001Z</time>
      </trkpt>
      <trkpt lat="44.89353" lon="1.54536">
        <ele>232.415</ele>
        <time>2019-10-30T10:59:58.001Z</time>
      </trkpt>
      <trkpt lat="44.89545" lon="1.54516">
        <ele>229.448</ele>
        <time>2019-10-30T11:00:31.001Z</time>
      </trkpt>
      <trkpt lat="44.89742" lon="1.5449">
        <ele>220.268</ele>
        <time>2019-10-30T11:01:01.001Z</time>
      </trkpt>
      <trkpt lat="44.89926" lon="1.5436">
        <ele>216.686</ele>
        <time>2019-10-30T11:01:31.001Z</time>
      </trkpt>
      <trkpt lat="44.901" lon="1.54225">
        <ele>216.734</ele>
        <time>2019-10-30T11:02:04.001Z</time>
      </trkpt>
      <trkpt lat="44.90197" lon="1.53998">
        <ele>218.588</ele>
        <time>2019-10-30T11:02:34.001Z</time>
      </trkpt>
      <trkpt lat="44.9029" lon="1.53777">
        <ele>218.4</ele>
        <time>2019-10-30T11:03:07.001Z</time>
      </trkpt>
      <trkpt lat="44.90374" lon="1.53621">
        <ele>223.906</ele>
        <time>2019-10-30T11:03:37.001Z</time>
      </trkpt>
      <trkpt lat="44.90487" lon="1.53511">
        <ele>226.785</ele>
        <time>2019-10-30T11:04:07.001Z</time>
      </trkpt>
      <trkpt lat="44.90601" lon="1.53422">
        <ele>224.842</ele>
        <time>2019-10-30T11:04:40.001Z</time>
      </trkpt>
      <trkpt lat="44.90632" lon="1.53231">
        <ele>225.512</ele>
        <time>2019-10-30T11:05:10.001Z</time>
      </trkpt>
      <trkpt lat="44.90654" lon="1.53005">
        <ele>221.15</ele>
        <time>2019-10-30T11:05:43.001Z</time>
      </trkpt>
      <trkpt lat="44.90695" lon="1.52849">
        <ele>222.962</ele>
        <time>2019-10-30T11:06:13.001Z</time>
      </trkpt>
      <trkpt lat="44.90739" lon="1.52739">
        <ele>226.384</ele>
        <time>2019-10-30T11:06:43.001Z</time>
      </trkpt>
      <trkpt lat="44.90804" lon="1.5264">
        <ele>232.427</ele>
        <time>2019-10-30T11:07:16Z</time>
      </trkpt>
      <trkpt lat="44.90863" lon="1.52561">
        <ele>232.036</ele>
        <time>2019-10-30T11:07:46.001Z</time>
      </trkpt>
      <trkpt lat="44.90926" lon="1.52478">
        <ele>238.979</ele>
        <time>2019-10-30T11:08:19.001Z</time>
      </trkpt>
      <trkpt lat="44.90977" lon="1.52389">
        <ele>241.716</ele>
        <time>2019-10-30T11:08:49.001Z</time>
      </trkpt>
      <trkpt lat="44.91008" lon="1.52268">
        <ele>249.059</ele>
        <time>2019-10-30T11:09:22.001Z</time>
      </trkpt>
      <trkpt lat="44.91034" lon="1.52128">
        <ele>249.713</ele>
        <time>2019-10-30T11:09:52.001Z</time>
      </trkpt>
      <trkpt lat="44.91091" lon="1.51928">
        <ele>246.532</ele>
        <time>2019-10-30T11:10:22.001Z</time>
      </trkpt>
      <trkpt lat="44.91293" lon="1.5164">
        <ele>231.736</ele>
        <time>2019-10-30T11:10:55.001Z</time>
      </trkpt>
      <trkpt lat="44.91406" lon="1.51385">
        <ele>214.388</ele>
        <time>2019-10-30T11:11:25.001Z</time>
      </trkpt>
      <trkpt lat="44.91086" lon="1.51251">
        <ele>192.294</ele>
        <time>2019-10-30T11:11:58.001Z</time>
      </trkpt>
      <trkpt lat="44.90946" lon="1.51346">
        <ele>179.749</ele>
        <time>2019-10-30T11:12:28.001Z</time>
      </trkpt>
      <trkpt lat="44.90676" lon="1.51151">
        <ele>169.653</ele>
        <time>2019-10-30T11:12:58.001Z</time>
      </trkpt>
      <trkpt lat="44.908" lon="1.50744">
        <ele>154.882</ele>
        <time>2019-10-30T11:13:31.001Z</time>
      </trkpt>
      <trkpt lat="44.90958" lon="1.50374">
        <ele>141.299</ele>
        <time>2019-10-30T11:14:01.001Z</time>
      </trkpt>
      <trkpt lat="44.91043" lon="1.50054">
        <ele>132.295</ele>
        <time>2019-10-30T11:14:34.001Z</time>
      </trkpt>
      <trkpt lat="44.90919" lon="1.4971">
        <ele>117.752</ele>
        <time>2019-10-30T11:15:04.001Z</time>
      </trkpt>
      <trkpt lat="44.90768" lon="1.49461">
        <ele>109.853</ele>
        <time>2019-10-30T11:15:34.001Z</time>
      </trkpt>
      <trkpt lat="44.90705" lon="1.49205">
        <ele>106.424</ele>
        <time>2019-10-30T11:16:07.001Z</time>
      </trkpt>
      <trkpt lat="44.90644" lon="1.48959">
        <ele>108.211</ele>
        <time>2019-10-30T11:16:37.001Z</time>
      </trkpt>
      <trkpt lat="44.90574" lon="1.48704">
        <ele>103.988</ele>
        <time>2019-10-30T11:17:10.001Z</time>
      </trkpt>
      <trkpt lat="44.90463" lon="1.48489">
        <ele>101.985</ele>
        <time>2019-10-30T11:17:40.001Z</time>
      </trkpt>
      <trkpt lat="44.90368" lon="1.48261">
        <ele>101.715</ele>
        <time>2019-10-30T11:18:10.001Z</time>
      </trkpt>
      <trkpt lat="44.90312" lon="1.47992">
        <ele>102.662</ele>
        <time>2019-10-30T11:18:43.001Z</time>
      </trkpt>
      <trkpt lat="44.90199" lon="1.47795">
        <ele>100.604</ele>
        <time>2019-10-30T11:19:13.001Z</time>
      </trkpt>
      <trkpt lat="44.90088" lon="1.47637">
        <ele>100.64</ele>
        <time>2019-10-30T11:19:46.001Z</time>
      </trkpt>
      <trkpt lat="44.90066" lon="1.47464">
        <ele>103.708</ele>
        <time>2019-10-30T11:20:16Z</time>
      </trkpt>
      <trkpt lat="44.9017" lon="1.47545">
        <ele>100.65</ele>
        <time>2019-10-30T11:20:49.001Z</time>
      </trkpt>
      <trkpt lat="44.90295" lon="1.47594">
        <ele>101.881</ele>
        <time>2019-10-30T11:21:19.001Z</time>
      </trkpt>
      <trkpt lat="44.90445" lon="1.47591">
        <ele>99.272</ele>
        <time>2019-10-30T11:21:49.001Z</time>
      </trkpt>
      <trkpt lat="44.90563" lon="1.4747">
        <ele>104.343</ele>
        <time>2019-10-30T11:22:22.001Z</time>
      </trkpt>
      <trkpt lat="44.90633" lon="1.47376">
        <ele>108.338</ele>
        <time>2019-10-30T11:22:52.001Z</time>
      </trkpt>
      <trkpt lat="44.9072" lon="1.47308">
        <ele>112.582</ele>
        <time>2019-10-30T11:23:25.001Z</time>
      </trkpt>
      <trkpt lat="44.90825" lon="1.47215">
        <ele>115.5</ele>
        <time>2019-10-30T11:23:55.001Z</time>
      </trkpt>
      <trkpt lat="44.90963" lon="1.47196">
        <ele>116.497</ele>
        <time>2019-10-30T11:24:25.001Z</time>
      </trkpt>
      <trkpt lat="44.91147" lon="1.47191">
        <ele>110.789</ele>
        <time>2019-10-30T11:24:58.001Z</time>
      </trkpt>
      <trkpt lat="44.91287" lon="1.47067">
        <ele>109.483</ele>
        <time>2019-10-30T11:25:28.001Z</time>
      </trkpt>
      <trkpt lat="44.91417" lon="1.46936">
        <ele>111.069</ele>
        <time>2019-10-30T11:26:01.001Z</time>
      </trkpt>
      <trkpt lat="44.91492" lon="1.46849">
        <ele>114.664</ele>
        <time>2019-10-30T11:26:31.001Z</time>
      </trkpt>
      <trkpt lat="44.9155" lon="1.46777">
        <ele>113.79</ele>
        <time>2019-10-30T11:27:01.001Z</time>
      </trkpt>
      <trkpt lat="44.91616" lon="1.4666">
        <ele>118.082</ele>
        <time>2019-10-30T11:27:34.001Z</time>
      </trkpt>
      <trkpt lat="44.91668" lon="1.4651">
        <ele>118.754</ele>
        <time>2019-10-30T11:28:04.001Z</time>
      </trkpt>
      <trkpt lat="44.91814" lon="1.46339">
        <ele>116.466</ele>
        <time>2019-10-30T11:28:37.001Z</time>
      </trkpt>
      <trkpt lat="44.91977" lon="1.46337">
        <ele>113.555</ele>
        <time>2019-10-30T11:29:07.001Z</time>
      </trkpt>
      <trkpt lat="44.92074" lon="1.46188">
        <ele>112.006</ele>
        <time>2019-10-30T11:29:37.001Z</time>
      </trkpt>
      <trkpt lat="44.92149" lon="1.45973">
        <ele>116.57</ele>
        <time>2019-10-30T11:30:10.001Z</time>
      </trkpt>
      <trkpt lat="44.9225" lon="1.45842">
        <ele>111.933</ele>
        <time>2019-10-30T11:30:40.001Z</time>
      </trkpt>
      <trkpt lat="44.92372" lon="1.4574">
        <ele>112.084</ele>
        <time>2019-10-30T11:31:13.001Z</time>
      </trkpt>
      <trkpt lat="44.92465" lon="1.45618">
        <ele>120.338</ele>
        <time>2019-10-30T11:31:43.001Z</time>
      </trkpt>
      <trkpt lat="44.9251" lon="1.45442">
        <ele>120.734</ele>
        <time>2019-10-30T11:32:16Z</time>
      </trkpt>
      <trkpt lat="44.92572" lon="1.45212">
        <ele>119.651</ele>
        <time>2019-10-30T11:32:46.001Z</time>
      </trkpt>
      <trkpt lat="44.9269" lon="1.45081">
        <ele>113.932</ele>
        <time>2019-10-30T11:33:16Z</time>
      </trkpt>
      <trkpt lat="44.92843" lon="1.44969">
        <ele>115.399</ele>
        <time>2019-10-30T11:33:49.001Z</time>
      </trkpt>
      <trkpt lat="44.92882" lon="1.44823">
        <ele>116.934</ele>
        <time>2019-10-30T11:34:19.001Z</time>
      </trkpt>
      <trkpt lat="44.92954" lon="1.44673">
        <ele>123.896</ele>
        <time>2019-10-30T11:34:52.001Z</time>
      </trkpt>
      <trkpt lat="44.93024" lon="1.4447">
        <ele>126.52</ele>
        <time>2019-10-30T11:35:22.001Z</time>
      </trkpt>
      <trkpt lat="44.93104" lon="1.44261">
        <ele>122.045</ele>
        <time>2019-10-30T11:35:52.001Z</time>
      </trkpt>
      <trkpt lat="44.93168" lon="1.44052">
        <ele>120.956</ele>
        <time>2019-10-30T11:36:25.001Z</time>
      </trkpt>
      <trkpt lat="44.93233" lon="1.43868">
        <ele>120.769</ele>
        <time>2019-10-30T11:36:55.001Z</time>
      </trkpt>
      <trkpt lat="44.93367" lon="1.43839">
        <ele>124.498</ele>
        <time>2019-10-30T11:37:28.001Z</time>
      </trkpt>
      <trkpt lat="44.93496" lon="1.4381">
        <ele>119.73</ele>
        <time>2019-10-30T11:37:58.001Z</time>
      </trkpt>
      <trkpt lat="44.9362" lon="1.43785">
        <ele>125.488</ele>
        <time>2019-10-30T11:38:28.001Z</time>
      </trkpt>
      <trkpt lat="44.93746" lon="1.4369">
        <ele>124.922</ele>
        <time>2019-10-30T11:39:01.001Z</time>
      </trkpt>
      <trkpt lat="44.93863" lon="1.43591">
        <ele>128.279</ele>
        <time>2019-10-30T11:39:31.001Z</time>
      </trkpt>
      <trkpt lat="44.93845" lon="1.43404">
        <ele>131.341</ele>
        <time>2019-10-30T11:40:04.001Z</time>
      </trkpt>
      <trkpt lat="44.93841" lon="1.4325">
        <ele>134.466</ele>
        <time>2019-10-30T11:40:34.001Z</time>
      </trkpt>
      <trkpt lat="44.93874" lon="1.43086">
        <ele>137.557</ele>
        <time>2019-10-30T11:41:07.001Z</time>
      </trkpt>
      <trkpt lat="44.93882" lon="1.42928">
        <ele>143.88</ele>
        <time>2019-10-30T11:41:37.001Z</time>
      </trkpt>
      <trkpt lat="44.9389" lon="1.42743">
        <ele>137.719</ele>
        <time>2019-10-30T11:42:07.001Z</time>
      </trkpt>
      <trkpt lat="44.93907" lon="1.42562">
        <ele>135.314</ele>
        <time>2019-10-30T11:42:40.001Z</time>
      </trkpt>
      <trkpt lat="44.93941" lon="1.42395">
        <ele>134.639</ele>
        <time>2019-10-30T11:43:10.001Z</time>
      </trkpt>
      <trkpt lat="44.93959" lon="1.4217">
        <ele>136.888</ele>
        <time>2019-10-30T11:43:43.001Z</time>
      </trkpt>
      <trkpt lat="44.93965" lon="1.41946">
        <ele>135.83</ele>
        <time>2019-10-30T11:44:13.001Z</time>
      </trkpt>
      <trkpt lat="44.94003" lon="1.41741">
        <ele>136.877</ele>
        <time>2019-10-30T11:44:43.001Z</time>
      </trkpt>
      <trkpt lat="44.94076" lon="1.41556">
        <ele>136.842</ele>
        <time>2019-10-30T11:45:16Z</time>
      </trkpt>
      <trkpt lat="44.94176" lon="1.41455">
        <ele>131.62</ele>
        <time>2019-10-30T11:45:46.001Z</time>
      </trkpt>
      <trkpt lat="44.94271" lon="1.41311">
        <ele>133.615</ele>
        <time>2019-10-30T11:46:19.001Z</time>
      </trkpt>
      <trkpt lat="44.9432" lon="1.41152">
        <ele>138.804</ele>
        <time>2019-10-30T11:46:49.001Z</time>
      </trkpt>
      <trkpt lat="44.94368" lon="1.40964">
        <ele>141.312</ele>
        <time>2019-10-30T11:47:19.001Z</time>
      </trkpt>
      <trkpt lat="44.94418" lon="1.40751">
        <ele>144.263</ele>
        <time>2019-10-30T11:47:52.001Z</time>
      </trkpt>
      <trkpt lat="44.94484" lon="1.40554">
        <ele>140.626</ele>
        <time>2019-10-30T11:48:22.001Z</time>
      </trkpt>
      <trkpt lat="44.94493" lon="1.40379">
        <ele>145.338</ele>
        <time>2019-10-30T11:48:55.001Z</time>
      </trkpt>
      <trkpt lat="44.94511" lon="1.40244">
        <ele>145.91</ele>
        <time>2019-10-30T11:49:25.001Z</time>
      </trkpt>
      <trkpt lat="44.94565" lon="1.40128">
        <ele>141.366</ele>
        <time>2019-10-30T11:49:55.001Z</time>
      </trkpt>
      <trkpt lat="44.94602" lon="1.39948">
        <ele>144.916</ele>
        <time>2019-10-30T11:50:28.001Z</time>
      </trkpt>
      <trkpt lat="44.94695" lon="1.39819">
        <ele>147.109</ele>
        <time>2019-10-30T11:50:58.001Z</time>
      </trkpt>
      <trkpt lat="44.9485" lon="1.39765">
        <ele>147.763</ele>
        <time>2019-10-30T11:51:31.001Z</time>
      </trkpt>
      <trkpt lat="44.94996" lon="1.39735">
        <ele>146.306</ele>
        <time>2019-10-30T11:52:01.001Z</time>
      </trkpt>
      <trkpt lat="44.95133" lon="1.3961">
        <ele>145.148</ele>
        <time>2019-10-30T11:52:34.001Z</time>
      </trkpt>
      <trkpt lat="44.95238" lon="1.39465">
        <ele>142.631</ele>
        <time>2019-10-30T11:53:04.001Z</time>
      </trkpt>
      <trkpt lat="44.95313" lon="1.39295">
        <ele>146.533</ele>
        <time>2019-10-30T11:53:34.001Z</time>
      </trkpt>
      <trkpt lat="44.9537" lon="1.39095">
        <ele>148.23</ele>
        <time>2019-10-30T11:54:07.001Z</time>
      </trkpt>
      <trkpt lat="44.95392" lon="1.38908">
        <ele>149.046</ele>
        <time>2019-10-30T11:54:37.001Z</time>
      </trkpt>
      <trkpt lat="44.9538" lon="1.38694">
        <ele>150.704</ele>
        <time>2019-10-30T11:55:10.001Z</time>
      </trkpt>
      <trkpt lat="44.954" lon="1.38533">
        <ele>152.863</ele>
        <time>2019-10-30T11:55:40.001Z</time>
      </trkpt>
      <trkpt lat="44.9545" lon="1.38411">
        <ele>156.307</ele>
        <time>2019-10-30T11:56:10.001Z</time>
      </trkpt>
      <trkpt lat="44.95476" lon="1.38267">
        <ele>158.053</ele>
        <time>2019-10-30T11:56:43.001Z</time>
      </trkpt>
      <trkpt lat="44.95486" lon="1.38105">
        <ele>157.38</ele>
        <time>2019-10-30T11:57:13.001Z</time>
      </trkpt>
      <trkpt lat="44.95502" lon="1.37891">
        <ele>157.569</ele>
        <time>2019-10-30T11:57:46.001Z</time>
      </trkpt>
      <trkpt lat="44.95546" lon="1.37698">
        <ele>159.351</ele>
        <time>2019-10-30T11:58:16Z</time>
      </trkpt>
      <trkpt lat="44.9564" lon="1.37549">
        <ele>162.477</ele>
        <time>2019-10-30T11:58:46.001Z</time>
      </trkpt>
      <trkpt lat="44.95791" lon="1.37477">
        <ele>158.685</ele>
        <time>2019-10-30T11:59:19.001Z</time>
      </trkpt>
      <trkpt lat="44.95927" lon="1.37476">
        <ele>160.918</ele>
        <time>2019-10-30T11:59:49.001Z</time>
      </trkpt>
      <trkpt lat="44.96073" lon="1.37508">
        <ele>161.621</ele>
        <time>2019-10-30T12:00:22.001Z</time>
      </trkpt>
      <trkpt lat="44.96208" lon="1.37522">
        <ele>162.757</ele>
        <time>2019-10-30T12:00:52.001Z</time>
      </trkpt>
      <trkpt lat="44.96347" lon="1.37428">
        <ele>165.16</ele>
        <time>2019-10-30T12:01:25.001Z</time>
      </trkpt>
      <trkpt lat="44.96412" lon="1.37253">
        <ele>166.361</ele>
        <time>2019-10-30T12:01:55.001Z</time>
      </trkpt>
      <trkpt lat="44.96457" lon="1.37091">
        <ele>170.927</ele>
        <time>2019-10-30T12:02:25.001Z</time>
      </trkpt>
      <trkpt lat="44.96453" lon="1.369">
        <ele>171.089</ele>
        <time>2019-10-30T12:02:58.001Z</time>
      </trkpt>
      <trkpt lat="44.96499" lon="1.36737">
        <ele>166.695</ele>
        <time>2019-10-30T12:03:28.001Z</time>
      </trkpt>
      <trkpt lat="44.96484" lon="1.36539">
        <ele>168.288</ele>
        <time>2019-10-30T12:04:01.001Z</time>
      </trkpt>
      <trkpt lat="44.96496" lon="1.36354">
        <ele>166.713</ele>
        <time>2019-10-30T12:04:31.001Z</time>
      </trkpt>
      <trkpt lat="44.9653" lon="1.36186">
        <ele>171.377</ele>
        <time>2019-10-30T12:05:01.001Z</time>
      </trkpt>
      <trkpt lat="44.96614" lon="1.36097">
        <ele>170.819</ele>
        <time>2019-10-30T12:05:34.001Z</time>
      </trkpt>
      <trkpt lat="44.9669" lon="1.36004">
        <ele>174.429</ele>
        <time>2019-10-30T12:06:04.001Z</time>
      </trkpt>
      <trkpt lat="44.96763" lon="1.35869">
        <ele>174.197</ele>
        <time>2019-10-30T12:06:37.001Z</time>
      </trkpt>
      <trkpt lat="44.96848" lon="1.35733">
        <ele>177.906</ele>
        <time>2019-10-30T12:07:07.001Z</time>
      </trkpt>
      <trkpt lat="44.96957" lon="1.35618">
        <ele>177.524</ele>
        <time>2019-10-30T12:07:37.001Z</time>
      </trkpt>
      <trkpt lat="44.97054" lon="1.35489">
        <ele>176.214</ele>
        <time>2019-10-30T12:08:10.001Z</time>
      </trkpt>
      <trkpt lat="44.9713" lon="1.3535">
        <ele>177.574</ele>
        <time>2019-10-30T12:08:40.001Z</time>
      </trkpt>
      <trkpt lat="44.97199" lon="1.35149">
        <ele>180.276</ele>
        <time>2019-10-30T12:09:13.001Z</time>
      </trkpt>
      <trkpt lat="44.97264" lon="1.35004">
        <ele>186.517</ele>
        <time>2019-10-30T12:09:43.001Z</time>
      </trkpt>
      <trkpt lat="44.97348" lon="1.34912">
        <ele>187.807</ele>
        <time>2019-10-30T12:10:13.001Z</time>
      </trkpt>
      <trkpt lat="44.97471" lon="1.34829">
        <ele>190.198</ele>
        <time>2019-10-30T12:10:46.001Z</time>
      </trkpt>
      <trkpt lat="44.97594" lon="1.34772">
        <ele>190.504</ele>
        <time>2019-10-30T12:11:16Z</time>
      </trkpt>
      <trkpt lat="44.97724" lon="1.3472">
        <ele>191.905</ele>
        <time>2019-10-30T12:11:49.001Z</time>
      </trkpt>
      <trkpt lat="44.97838" lon="1.34698">
        <ele>193.651</ele>
        <time>2019-10-30T12:12:19.001Z</time>
      </trkpt>
      <trkpt lat="44.97962" lon="1.34609">
        <ele>201.994</ele>
        <time>2019-10-30T12:12:52.001Z</time>
      </trkpt>
      <trkpt lat="44.98082" lon="1.34532">
        <ele>191.234</ele>
        <time>2019-10-30T12:13:22.001Z</time>
      </trkpt>
      <trkpt lat="44.98124" lon="1.34429">
        <ele>188.943</ele>
        <time>2019-10-30T12:14:01.001Z</time>
      </trkpt>
      <trkpt lat="44.98127" lon="1.34376">
        <ele>193.017</ele>
        <time>2019-10-30T12:50:16Z</time>
      </trkpt>
      <trkpt lat="44.98171" lon="1.34259">
        <ele>195.515</ele>
        <time>2019-10-30T12:50:46.001Z</time>
      </trkpt>
      <trkpt lat="44.98219" lon="1.34127">
        <ele>193.147</ele>
        <time>2019-10-30T12:51:19.001Z</time>
      </trkpt>
      <trkpt lat="44.9819" lon="1.34043">
        <ele>197.495</ele>
        <time>2019-10-30T12:51:49.001Z</time>
      </trkpt>
      <trkpt lat="44.98151" lon="1.33928">
        <ele>203.285</ele>
        <time>2019-10-30T12:52:19.001Z</time>
      </trkpt>
      <trkpt lat="44.98128" lon="1.33786">
        <ele>213.856</ele>
        <time>2019-10-30T12:52:52.001Z</time>
      </trkpt>
      <trkpt lat="44.98075" lon="1.33678">
        <ele>211.79</ele>
        <time>2019-10-30T12:53:22.001Z</time>
      </trkpt>
      <trkpt lat="44.98017" lon="1.33565">
        <ele>215.048</ele>
        <time>2019-10-30T12:53:55.001Z</time>
      </trkpt>
      <trkpt lat="44.97965" lon="1.33508">
        <ele>216.558</ele>
        <time>2019-10-30T12:54:25.001Z</time>
      </trkpt>
      <trkpt lat="44.97904" lon="1.3348">
        <ele>214.298</ele>
        <time>2019-10-30T12:54:55.001Z</time>
      </trkpt>
      <trkpt lat="44.97843" lon="1.3343">
        <ele>217.787</ele>
        <time>2019-10-30T12:55:28.001Z</time>
      </trkpt>
      <trkpt lat="44.97781" lon="1.33429">
        <ele>225.969</ele>
        <time>2019-10-30T12:55:58.001Z</time>
      </trkpt>
      <trkpt lat="44.97712" lon="1.33432">
        <ele>227.159</ele>
        <time>2019-10-30T12:56:31.001Z</time>
      </trkpt>
      <trkpt lat="44.9771" lon="1.33354">
        <ele>229.723</ele>
        <time>2019-10-30T12:57:01.001Z</time>
      </trkpt>
      <trkpt lat="44.97738" lon="1.33286">
        <ele>236.708</ele>
        <time>2019-10-30T12:57:31.001Z</time>
      </trkpt>
      <trkpt lat="44.97689" lon="1.33218">
        <ele>242.483</ele>
        <time>2019-10-30T12:58:04.001Z</time>
      </trkpt>
      <trkpt lat="44.97622" lon="1.33207">
        <ele>251.652</ele>
        <time>2019-10-30T12:58:34.001Z</time>
      </trkpt>
      <trkpt lat="44.9755" lon="1.33203">
        <ele>250.625</ele>
        <time>2019-10-30T12:59:07.001Z</time>
      </trkpt>
      <trkpt lat="44.97536" lon="1.33122">
        <ele>248.561</ele>
        <time>2019-10-30T12:59:37.001Z</time>
      </trkpt>
      <trkpt lat="44.97534" lon="1.33034">
        <ele>254.445</ele>
        <time>2019-10-30T13:00:10.001Z</time>
      </trkpt>
      <trkpt lat="44.97486" lon="1.32973">
        <ele>256.424</ele>
        <time>2019-10-30T13:00:40.001Z</time>
      </trkpt>
      <trkpt lat="44.9744" lon="1.32923">
        <ele>259.285</ele>
        <time>2019-10-30T13:01:10.001Z</time>
      </trkpt>
      <trkpt lat="44.97386" lon="1.32866">
        <ele>268.511</ele>
        <time>2019-10-30T13:01:43.001Z</time>
      </trkpt>
      <trkpt lat="44.97354" lon="1.32801">
        <ele>275.693</ele>
        <time>2019-10-30T13:02:13.001Z</time>
      </trkpt>
      <trkpt lat="44.97309" lon="1.32725">
        <ele>277.374</ele>
        <time>2019-10-30T13:02:46.001Z</time>
      </trkpt>
      <trkpt lat="44.97304" lon="1.32647">
        <ele>278.369</ele>
        <time>2019-10-30T13:03:16Z</time>
      </trkpt>
      <trkpt lat="44.97291" lon="1.32574">
        <ele>281.271</ele>
        <time>2019-10-30T13:03:46.001Z</time>
      </trkpt>
      <trkpt lat="44.97251" lon="1.32499">
        <ele>284.535</ele>
        <time>2019-10-30T13:04:19.001Z</time>
      </trkpt>
      <trkpt lat="44.97213" lon="1.32441">
        <ele>287.065</ele>
        <time>2019-10-30T13:04:49.001Z</time>
      </trkpt>
      <trkpt lat="44.9723" lon="1.3236">
        <ele>291.283</ele>
        <time>2019-10-30T13:05:22.001Z</time>
      </trkpt>
      <trkpt lat="44.97289" lon="1.32361">
        <ele>292.498</ele>
        <time>2019-10-30T13:05:52.001Z</time>
      </trkpt>
      <trkpt lat="44.97341" lon="1.32402">
        <ele>298.41</ele>
        <time>2019-10-30T13:06:22.001Z</time>
      </trkpt>
      <trkpt lat="44.97386" lon="1.32336">
        <ele>304.631</ele>
        <time>2019-10-30T13:06:55.001Z</time>
      </trkpt>
      <trkpt lat="44.97419" lon="1.32248">
        <ele>304.645</ele>
        <time>2019-10-30T13:07:25.001Z</time>
      </trkpt>
      <trkpt lat="44.97414" lon="1.32084">
        <ele>305.224</ele>
        <time>2019-10-30T13:07:58.001Z</time>
      </trkpt>
      <trkpt lat="44.97411" lon="1.31852">
        <ele>302.083</ele>
        <time>2019-10-30T13:08:28.001Z</time>
      </trkpt>
      <trkpt lat="44.97406" lon="1.31573">
        <ele>296.976</ele>
        <time>2019-10-30T13:09:01.001Z</time>
      </trkpt>
      <trkpt lat="44.97402" lon="1.31322">
        <ele>294.053</ele>
        <time>2019-10-30T13:09:31.001Z</time>
      </trkpt>
      <trkpt lat="44.97397" lon="1.31042">
        <ele>289.886</ele>
        <time>2019-10-30T13:10:01.001Z</time>
      </trkpt>
      <trkpt lat="44.97393" lon="1.30816">
        <ele>290.989</ele>
        <time>2019-10-30T13:10:34.001Z</time>
      </trkpt>
      <trkpt lat="44.97389" lon="1.3062">
        <ele>290.231</ele>
        <time>2019-10-30T13:11:04.001Z</time>
      </trkpt>
      <trkpt lat="44.97384" lon="1.30406">
        <ele>294.93</ele>
        <time>2019-10-30T13:11:37.001Z</time>
      </trkpt>
      <trkpt lat="44.97383" lon="1.30216">
        <ele>293.635</ele>
        <time>2019-10-30T13:12:07.001Z</time>
      </trkpt>
      <trkpt lat="44.9738" lon="1.30032">
        <ele>292.911</ele>
        <time>2019-10-30T13:12:37.001Z</time>
      </trkpt>
      <trkpt lat="44.97363" lon="1.2984">
        <ele>297.731</ele>
        <time>2019-10-30T13:13:10.001Z</time>
      </trkpt>
      <trkpt lat="44.97339" lon="1.29678">
        <ele>299.469</ele>
        <time>2019-10-30T13:13:40.001Z</time>
      </trkpt>
      <trkpt lat="44.9732" lon="1.2951">
        <ele>300.623</ele>
        <time>2019-10-30T13:14:13.001Z</time>
      </trkpt>
      <trkpt lat="44.97335" lon="1.29314">
        <ele>301.726</ele>
        <time>2019-10-30T13:14:43.001Z</time>
      </trkpt>
      <trkpt lat="44.97354" lon="1.29059">
        <ele>300.051</ele>
        <time>2019-10-30T13:15:13.001Z</time>
      </trkpt>
      <trkpt lat="44.97314" lon="1.28751">
        <ele>293.467</ele>
        <time>2019-10-30T13:15:46.001Z</time>
      </trkpt>
      <trkpt lat="44.97314" lon="1.28392">
        <ele>282.865</ele>
        <time>2019-10-30T13:16:16Z</time>
      </trkpt>
      <trkpt lat="44.97385" lon="1.28051">
        <ele>276.701</ele>
        <time>2019-10-30T13:16:49.001Z</time>
      </trkpt>
      <trkpt lat="44.97446" lon="1.27712">
        <ele>275.265</ele>
        <time>2019-10-30T13:17:19.001Z</time>
      </trkpt>
      <trkpt lat="44.97489" lon="1.27549">
        <ele>267.895</ele>
        <time>2019-10-30T13:17:52.001Z</time>
      </trkpt>
      <trkpt lat="44.97529" lon="1.27278">
        <ele>264.129</ele>
        <time>2019-10-30T13:18:25.001Z</time>
      </trkpt>
      <trkpt lat="44.97558" lon="1.27117">
        <ele>265.254</ele>
        <time>2019-10-30T13:18:55.001Z</time>
      </trkpt>
      <trkpt lat="44.97641" lon="1.2696">
        <ele>263.413</ele>
        <time>2019-10-30T13:19:28.001Z</time>
      </trkpt>
      <trkpt lat="44.97687" lon="1.26901">
        <ele>268.756</ele>
        <time>2019-10-30T13:20:01.001Z</time>
      </trkpt>
      <trkpt lat="44.97851" lon="1.26864">
        <ele>266.423</ele>
        <time>2019-10-30T13:20:34.001Z</time>
      </trkpt>
      <trkpt lat="44.98118" lon="1.26917">
        <ele>259.443</ele>
        <time>2019-10-30T13:21:04.001Z</time>
      </trkpt>
      <trkpt lat="44.98313" lon="1.26568">
        <ele>235.394</ele>
        <time>2019-10-30T13:21:34.001Z</time>
      </trkpt>
      <trkpt lat="44.9836" lon="1.26193">
        <ele>223.695</ele>
        <time>2019-10-30T13:22:07.001Z</time>
      </trkpt>
      <trkpt lat="44.9849" lon="1.26028">
        <ele>220.159</ele>
        <time>2019-10-30T13:22:37.001Z</time>
      </trkpt>
      <trkpt lat="44.98688" lon="1.25854">
        <ele>213.364</ele>
        <time>2019-10-30T13:23:10.001Z</time>
      </trkpt>
      <trkpt lat="44.98837" lon="1.25557">
        <ele>200.369</ele>
        <time>2019-10-30T13:23:40.001Z</time>
      </trkpt>
      <trkpt lat="44.99011" lon="1.25512">
        <ele>204.586</ele>
        <time>2019-10-30T13:24:10.001Z</time>
      </trkpt>
      <trkpt lat="44.99242" lon="1.25495">
        <ele>199.469</ele>
        <time>2019-10-30T13:24:43.001Z</time>
      </trkpt>
      <trkpt lat="44.9938" lon="1.25413">
        <ele>198.968</ele>
        <time>2019-10-30T13:25:13.001Z</time>
      </trkpt>
      <trkpt lat="44.994" lon="1.25297">
        <ele>199.477</ele>
        <time>2019-10-30T13:25:52.001Z</time>
      </trkpt>
      <trkpt lat="44.99406" lon="1.25211">
        <ele>210.473</ele>
        <time>2019-10-30T13:26:28.001Z</time>
      </trkpt>
      <trkpt lat="44.99412" lon="1.25139">
        <ele>212.973</ele>
        <time>2019-10-30T13:26:58.001Z</time>
      </trkpt>
      <trkpt lat="44.99467" lon="1.25101">
        <ele>218.386</ele>
        <time>2019-10-30T13:27:40.001Z</time>
      </trkpt>
      <trkpt lat="44.99503" lon="1.25055">
        <ele>217.608</ele>
        <time>2019-10-30T13:28:10.001Z</time>
      </trkpt>
      <trkpt lat="44.99473" lon="1.24977">
        <ele>222.163</ele>
        <time>2019-10-30T13:28:46.001Z</time>
      </trkpt>
      <trkpt lat="44.9944" lon="1.24915">
        <ele>227.027</ele>
        <time>2019-10-30T13:29:16Z</time>
      </trkpt>
      <trkpt lat="44.99421" lon="1.24836">
        <ele>231.948</ele>
        <time>2019-10-30T13:29:49.001Z</time>
      </trkpt>
      <trkpt lat="44.99427" lon="1.24758">
        <ele>233.901</ele>
        <time>2019-10-30T13:30:19.001Z</time>
      </trkpt>
      <trkpt lat="44.99431" lon="1.24673">
        <ele>236.448</ele>
        <time>2019-10-30T13:30:49.001Z</time>
      </trkpt>
      <trkpt lat="44.99431" lon="1.24566">
        <ele>240.322</ele>
        <time>2019-10-30T13:31:22.001Z</time>
      </trkpt>
      <trkpt lat="44.9943" lon="1.24459">
        <ele>243.072</ele>
        <time>2019-10-30T13:31:52.001Z</time>
      </trkpt>
      <trkpt lat="44.99467" lon="1.24366">
        <ele>245.084</ele>
        <time>2019-10-30T13:32:25.001Z</time>
      </trkpt>
      <trkpt lat="44.99513" lon="1.24306">
        <ele>250.992</ele>
        <time>2019-10-30T13:32:55.001Z</time>
      </trkpt>
      <trkpt lat="44.99569" lon="1.24257">
        <ele>252.875</ele>
        <time>2019-10-30T13:33:25.001Z</time>
      </trkpt>
      <trkpt lat="44.99606" lon="1.24181">
        <ele>255.587</ele>
        <time>2019-10-30T13:33:58.001Z</time>
      </trkpt>
      <trkpt lat="44.99607" lon="1.24039">
        <ele>254.384</ele>
        <time>2019-10-30T13:34:28.001Z</time>
      </trkpt>
      <trkpt lat="44.99749" lon="1.23862">
        <ele>252.326</ele>
        <time>2019-10-30T13:35:01.001Z</time>
      </trkpt>
      <trkpt lat="44.9984" lon="1.23551">
        <ele>243.624</ele>
        <time>2019-10-30T13:35:31.001Z</time>
      </trkpt>
      <trkpt lat="44.99835" lon="1.2319">
        <ele>230.289</ele>
        <time>2019-10-30T13:36:01.001Z</time>
      </trkpt>
      <trkpt lat="44.9988" lon="1.22761">
        <ele>220.883</ele>
        <time>2019-10-30T13:36:34.001Z</time>
      </trkpt>
      <trkpt lat="44.99905" lon="1.22406">
        <ele>213.157</ele>
        <time>2019-10-30T13:37:04.001Z</time>
      </trkpt>
      <trkpt lat="45.00034" lon="1.22195">
        <ele>201.603</ele>
        <time>2019-10-30T13:37:37.001Z</time>
      </trkpt>
      <trkpt lat="45.00115" lon="1.22022">
        <ele>197.243</ele>
        <time>2019-10-30T13:38:07.001Z</time>
      </trkpt>
      <trkpt lat="45.00181" lon="1.21996">
        <ele>206.614</ele>
        <time>2019-10-30T13:38:37.001Z</time>
      </trkpt>
      <trkpt lat="45.00244" lon="1.21989">
        <ele>218.625</ele>
        <time>2019-10-30T13:39:10.001Z</time>
      </trkpt>
      <trkpt lat="45.0027" lon="1.2191">
        <ele>220.423</ele>
        <time>2019-10-30T13:39:40.001Z</time>
      </trkpt>
      <trkpt lat="45.00276" lon="1.21817">
        <ele>223.38</ele>
        <time>2019-10-30T13:40:13.001Z</time>
      </trkpt>
      <trkpt lat="45.0027" lon="1.21733">
        <ele>233.438</ele>
        <time>2019-10-30T13:40:43.001Z</time>
      </trkpt>
      <trkpt lat="45.00279" lon="1.21654">
        <ele>243.097</ele>
        <time>2019-10-30T13:41:16Z</time>
      </trkpt>
      <trkpt lat="45.00305" lon="1.21566">
        <ele>241.919</ele>
        <time>2019-10-30T13:41:49.001Z</time>
      </trkpt>
      <trkpt lat="45.00326" lon="1.21501">
        <ele>242.09</ele>
        <time>2019-10-30T13:42:22.001Z</time>
      </trkpt>
      <trkpt lat="45.0035" lon="1.21427">
        <ele>250.057</ele>
        <time>2019-10-30T13:42:55.001Z</time>
      </trkpt>
      <trkpt lat="45.00375" lon="1.21343">
        <ele>253.591</ele>
        <time>2019-10-30T13:43:34.001Z</time>
      </trkpt>
      <trkpt lat="45.00388" lon="1.21254">
        <ele>258.053</ele>
        <time>2019-10-30T13:44:10.001Z</time>
      </trkpt>
      <trkpt lat="45.00408" lon="1.21167">
        <ele>263.618</ele>
        <time>2019-10-30T13:44:49.001Z</time>
      </trkpt>
      <trkpt lat="45.00417" lon="1.21078">
        <ele>265.177</ele>
        <time>2019-10-30T13:45:22.001Z</time>
      </trkpt>
      <trkpt lat="45.00404" lon="1.20988">
        <ele>260.372</ele>
        <time>2019-10-30T13:46:01.001Z</time>
      </trkpt>
      <trkpt lat="45.00443" lon="1.20934">
        <ele>262.391</ele>
        <time>2019-10-30T13:46:31.001Z</time>
      </trkpt>
      <trkpt lat="45.00502" lon="1.2088">
        <ele>266.087</ele>
        <time>2019-10-30T13:47:04.001Z</time>
      </trkpt>
      <trkpt lat="45.00559" lon="1.20829">
        <ele>272.011</ele>
        <time>2019-10-30T13:47:34.001Z</time>
      </trkpt>
      <trkpt lat="45.00616" lon="1.20776">
        <ele>279.776</ele>
        <time>2019-10-30T13:48:04.001Z</time>
      </trkpt>
      <trkpt lat="45.00682" lon="1.20721">
        <ele>281.081</ele>
        <time>2019-10-30T13:48:37.001Z</time>
      </trkpt>
      <trkpt lat="45.00724" lon="1.20661">
        <ele>283.455</ele>
        <time>2019-10-30T13:49:07.001Z</time>
      </trkpt>
      <trkpt lat="45.00774" lon="1.20586">
        <ele>283.751</ele>
        <time>2019-10-30T13:49:40.001Z</time>
      </trkpt>
      <trkpt lat="45.00833" lon="1.20503">
        <ele>283.895</ele>
        <time>2019-10-30T13:50:10.001Z</time>
      </trkpt>
      <trkpt lat="45.01024" lon="1.20272">
        <ele>277.237</ele>
        <time>2019-10-30T13:50:40.001Z</time>
      </trkpt>
      <trkpt lat="45.01216" lon="1.19956">
        <ele>254.62</ele>
        <time>2019-10-30T13:51:13.001Z</time>
      </trkpt>
      <trkpt lat="45.01224" lon="1.19769">
        <ele>254.801</ele>
        <time>2019-10-30T13:51:43.001Z</time>
      </trkpt>
      <trkpt lat="45.01208" lon="1.19576">
        <ele>258.533</ele>
        <time>2019-10-30T13:52:16Z</time>
      </trkpt>
      <trkpt lat="45.01196" lon="1.19327">
        <ele>257.557</ele>
        <time>2019-10-30T13:52:46.001Z</time>
      </trkpt>
      <trkpt lat="45.01179" lon="1.19048">
        <ele>250.706</ele>
        <time>2019-10-30T13:53:19.001Z</time>
      </trkpt>
      <trkpt lat="45.01167" lon="1.18778">
        <ele>248.646</ele>
        <time>2019-10-30T13:53:49.001Z</time>
      </trkpt>
      <trkpt lat="45.01173" lon="1.18652">
        <ele>255.06</ele>
        <time>2019-10-30T13:54:19.001Z</time>
      </trkpt>
      <trkpt lat="45.01179" lon="1.18537">
        <ele>258.84</ele>
        <time>2019-10-30T13:54:52.001Z</time>
      </trkpt>
      <trkpt lat="45.0121" lon="1.1839">
        <ele>260.177</ele>
        <time>2019-10-30T13:55:22.001Z</time>
      </trkpt>
      <trkpt lat="45.01161" lon="1.18339">
        <ele>265.015</ele>
        <time>2019-10-30T13:55:55.001Z</time>
      </trkpt>
      <trkpt lat="45.0108" lon="1.18314">
        <ele>264.701</ele>
        <time>2019-10-30T13:56:25.001Z</time>
      </trkpt>
      <trkpt lat="45.01034" lon="1.18118">
        <ele>263.232</ele>
        <time>2019-10-30T13:56:55.001Z</time>
      </trkpt>
      <trkpt lat="45.0103" lon="1.17979">
        <ele>262.787</ele>
        <time>2019-10-30T13:57:28.001Z</time>
      </trkpt>
      <trkpt lat="45.01015" lon="1.17805">
        <ele>267.026</ele>
        <time>2019-10-30T13:57:58.001Z</time>
      </trkpt>
      <trkpt lat="45.01005" lon="1.17468">
        <ele>259.676</ele>
        <time>2019-10-30T13:58:31.001Z</time>
      </trkpt>
      <trkpt lat="45.0101" lon="1.1719">
        <ele>255.536</ele>
        <time>2019-10-30T13:59:01.001Z</time>
      </trkpt>
      <trkpt lat="45.0092" lon="1.16909">
        <ele>248.449</ele>
        <time>2019-10-30T13:59:31.001Z</time>
      </trkpt>
      <trkpt lat="45.00813" lon="1.16676">
        <ele>244.211</ele>
        <time>2019-10-30T14:00:04.001Z</time>
      </trkpt>
      <trkpt lat="45.00737" lon="1.16406">
        <ele>242.127</ele>
        <time>2019-10-30T14:00:34.001Z</time>
      </trkpt>
      <trkpt lat="45.00763" lon="1.16152">
        <ele>237.944</ele>
        <time>2019-10-30T14:01:07.001Z</time>
      </trkpt>
      <trkpt lat="45.0079" lon="1.15917">
        <ele>231.695</ele>
        <time>2019-10-30T14:01:37.001Z</time>
      </trkpt>
      <trkpt lat="45.00675" lon="1.15723">
        <ele>226.867</ele>
        <time>2019-10-30T14:02:10.001Z</time>
      </trkpt>
      <trkpt lat="45.00526" lon="1.15612">
        <ele>222.092</ele>
        <time>2019-10-30T14:02:40.001Z</time>
      </trkpt>
      <trkpt lat="45.00523" lon="1.15377">
        <ele>218.707</ele>
        <time>2019-10-30T14:03:10.001Z</time>
      </trkpt>
      <trkpt lat="45.00618" lon="1.15158">
        <ele>218.882</ele>
        <time>2019-10-30T14:03:43.001Z</time>
      </trkpt>
      <trkpt lat="45.00707" lon="1.1489">
        <ele>212.383</ele>
        <time>2019-10-30T14:04:13.001Z</time>
      </trkpt>
      <trkpt lat="45.00821" lon="1.14673">
        <ele>214.569</ele>
        <time>2019-10-30T14:04:46.001Z</time>
      </trkpt>
      <trkpt lat="45.00868" lon="1.1449">
        <ele>209.396</ele>
        <time>2019-10-30T14:05:16Z</time>
      </trkpt>
      <trkpt lat="45.00884" lon="1.14127">
        <ele>193.386</ele>
        <time>2019-10-30T14:05:46.001Z</time>
      </trkpt>
      <trkpt lat="45.01111" lon="1.13757">
        <ele>170.817</ele>
        <time>2019-10-30T14:06:19.001Z</time>
      </trkpt>
      <trkpt lat="45.0126" lon="1.13487">
        <ele>152.435</ele>
        <time>2019-10-30T14:06:49.001Z</time>
      </trkpt>
      <trkpt lat="45.01464" lon="1.13243">
        <ele>130.685</ele>
        <time>2019-10-30T14:07:22.001Z</time>
      </trkpt>
      <trkpt lat="45.01702" lon="1.13105">
        <ele>112.156</ele>
        <time>2019-10-30T14:07:52.001Z</time>
      </trkpt>
      <trkpt lat="45.01993" lon="1.13095">
        <ele>95.807</ele>
        <time>2019-10-30T14:08:22.001Z</time>
      </trkpt>
      <trkpt lat="45.02127" lon="1.12873">
        <ele>90.142</ele>
        <time>2019-10-30T14:08:55.001Z</time>
      </trkpt>
      <trkpt lat="45.02165" lon="1.12803">
        <ele>94.87</ele>
        <time>2019-10-30T14:09:25.001Z</time>
      </trkpt>
      <trkpt lat="45.02169" lon="1.12709">
        <ele>101.785</ele>
        <time>2019-10-30T14:09:58.001Z</time>
      </trkpt>
      <trkpt lat="45.0215" lon="1.12593">
        <ele>104.056</ele>
        <time>2019-10-30T14:10:28.001Z</time>
      </trkpt>
      <trkpt lat="45.02093" lon="1.12282">
        <ele>91.472</ele>
        <time>2019-10-30T14:10:58.001Z</time>
      </trkpt>
      <trkpt lat="45.02027" lon="1.12012">
        <ele>81.567</ele>
        <time>2019-10-30T14:11:31.001Z</time>
      </trkpt>
      <trkpt lat="45.02045" lon="1.11836">
        <ele>81.462</ele>
        <time>2019-10-30T14:12:01.001Z</time>
      </trkpt>
      <trkpt lat="45.02247" lon="1.11746">
        <ele>76.241</ele>
        <time>2019-10-30T14:12:34.001Z</time>
      </trkpt>
      <trkpt lat="45.02222" lon="1.11579">
        <ele>74.563</ele>
        <time>2019-10-30T14:13:04.001Z</time>
      </trkpt>
      <trkpt lat="45.02211" lon="1.11363">
        <ele>74.995</ele>
        <time>2019-10-30T14:13:37.001Z</time>
      </trkpt>
      <trkpt lat="45.02124" lon="1.11211">
        <ele>73.235</ele>
        <time>2019-10-30T14:14:07.001Z</time>
      </trkpt>
      <trkpt lat="45.02064" lon="1.11071">
        <ele>75.613</ele>
        <time>2019-10-30T14:14:37.001Z</time>
      </trkpt>
      <trkpt lat="45.02062" lon="1.10957">
        <ele>81.527</ele>
        <time>2019-10-30T14:15:10.001Z</time>
      </trkpt>
      <trkpt lat="45.0208" lon="1.10875">
        <ele>93.109</ele>
        <time>2019-10-30T14:15:43.001Z</time>
      </trkpt>
      <trkpt lat="45.02103" lon="1.10806">
        <ele>95.059</ele>
        <time>2019-10-30T14:16:16Z</time>
      </trkpt>
      <trkpt lat="45.0212" lon="1.10737">
        <ele>94.829</ele>
        <time>2019-10-30T14:16:46.001Z</time>
      </trkpt>
      <trkpt lat="45.02134" lon="1.10657">
        <ele>98.026</ele>
        <time>2019-10-30T14:17:16Z</time>
      </trkpt>
      <trkpt lat="45.02125" lon="1.10561">
        <ele>101.947</ele>
        <time>2019-10-30T14:17:49.001Z</time>
      </trkpt>
      <trkpt lat="45.02162" lon="1.10507">
        <ele>106.54</ele>
        <time>2019-10-30T14:18:19.001Z</time>
      </trkpt>
      <trkpt lat="45.02305" lon="1.10453">
        <ele>101.892</ele>
        <time>2019-10-30T14:18:52.001Z</time>
      </trkpt>
      <trkpt lat="45.02372" lon="1.10463">
        <ele>106.65</ele>
        <time>2019-10-30T14:19:25.001Z</time>
      </trkpt>
      <trkpt lat="45.0244" lon="1.10512">
        <ele>110.906</ele>
        <time>2019-10-30T14:19:55.001Z</time>
      </trkpt>
      <trkpt lat="45.02499" lon="1.10524">
        <ele>116.479</ele>
        <time>2019-10-30T14:20:28.001Z</time>
      </trkpt>
      <trkpt lat="45.02541" lon="1.10494">
        <ele>116.703</ele>
        <time>2019-10-30T14:20:58.001Z</time>
      </trkpt>
      <trkpt lat="45.02567" lon="1.10381">
        <ele>123.597</ele>
        <time>2019-10-30T14:21:31.001Z</time>
      </trkpt>
      <trkpt lat="45.02594" lon="1.10292">
        <ele>130.693</ele>
        <time>2019-10-30T14:22:01.001Z</time>
      </trkpt>
      <trkpt lat="45.02629" lon="1.10209">
        <ele>136.848</ele>
        <time>2019-10-30T14:22:34.001Z</time>
      </trkpt>
      <trkpt lat="45.0263" lon="1.10125">
        <ele>139.923</ele>
        <time>2019-10-30T14:23:07.001Z</time>
      </trkpt>
      <trkpt lat="45.02625" lon="1.10041">
        <ele>145.077</ele>
        <time>2019-10-30T14:23:37.001Z</time>
      </trkpt>
      <trkpt lat="45.02665" lon="1.09963">
        <ele>148.194</ele>
        <time>2019-10-30T14:24:10.001Z</time>
      </trkpt>
      <trkpt lat="45.02686" lon="1.09885">
        <ele>155.122</ele>
        <time>2019-10-30T14:24:40.001Z</time>
      </trkpt>
      <trkpt lat="45.02671" lon="1.09798">
        <ele>158.762</ele>
        <time>2019-10-30T14:25:13.001Z</time>
      </trkpt>
      <trkpt lat="45.02637" lon="1.0973">
        <ele>152.559</ele>
        <time>2019-10-30T14:25:43.001Z</time>
      </trkpt>
      <trkpt lat="45.02589" lon="1.09685">
        <ele>162.089</ele>
        <time>2019-10-30T14:26:13.001Z</time>
      </trkpt>
      <trkpt lat="45.02553" lon="1.09602">
        <ele>164.638</ele>
        <time>2019-10-30T14:26:46.001Z</time>
      </trkpt>
      <trkpt lat="45.02537" lon="1.09526">
        <ele>165.869</ele>
        <time>2019-10-30T14:27:16Z</time>
      </trkpt>
      <trkpt lat="45.02565" lon="1.09449">
        <ele>177.704</ele>
        <time>2019-10-30T14:27:55.001Z</time>
      </trkpt>
      <trkpt lat="45.02622" lon="1.09442">
        <ele>178.801</ele>
        <time>2019-10-30T14:28:25.001Z</time>
      </trkpt>
      <trkpt lat="45.02676" lon="1.09447">
        <ele>180.888</ele>
        <time>2019-10-30T14:28:55.001Z</time>
      </trkpt>
      <trkpt lat="45.02734" lon="1.094">
        <ele>188.807</ele>
        <time>2019-10-30T14:29:34.001Z</time>
      </trkpt>
      <trkpt lat="45.0275" lon="1.09323">
        <ele>192.094</ele>
        <time>2019-10-30T14:30:07.001Z</time>
      </trkpt>
      <trkpt lat="45.02791" lon="1.09251">
        <ele>200.806</ele>
        <time>2019-10-30T14:30:40.001Z</time>
      </trkpt>
      <trkpt lat="45.02841" lon="1.09235">
        <ele>208.368</ele>
        <time>2019-10-30T14:31:10.001Z</time>
      </trkpt>
      <trkpt lat="45.0289" lon="1.09264">
        <ele>215.994</ele>
        <time>2019-10-30T14:31:43.001Z</time>
      </trkpt>
      <trkpt lat="45.02915" lon="1.09335">
        <ele>219.598</ele>
        <time>2019-10-30T14:32:16Z</time>
      </trkpt>
      <trkpt lat="45.02936" lon="1.09412">
        <ele>213.625</ele>
        <time>2019-10-30T14:32:46.001Z</time>
      </trkpt>
      <trkpt lat="45.02993" lon="1.09418">
        <ele>213.15</ele>
        <time>2019-10-30T14:33:22.001Z</time>
      </trkpt>
      <trkpt lat="45.03032" lon="1.09357">
        <ele>214.688</ele>
        <time>2019-10-30T14:33:55.001Z</time>
      </trkpt>
      <trkpt lat="45.03062" lon="1.09277">
        <ele>218.788</ele>
        <time>2019-10-30T14:34:28.001Z</time>
      </trkpt>
      <trkpt lat="45.03094" lon="1.09194">
        <ele>216.844</ele>
        <time>2019-10-30T14:34:58.001Z</time>
      </trkpt>
      <trkpt lat="45.03118" lon="1.09112">
        <ele>215.543</ele>
        <time>2019-10-30T14:35:28.001Z</time>
      </trkpt>
      <trkpt lat="45.03071" lon="1.08983">
        <ele>217.023</ele>
        <time>2019-10-30T14:36:01.001Z</time>
      </trkpt>
      <trkpt lat="45.0303" lon="1.08838">
        <ele>219.979</ele>
        <time>2019-10-30T14:36:31.001Z</time>
      </trkpt>
      <trkpt lat="45.02994" lon="1.08661">
        <ele>219.124</ele>
        <time>2019-10-30T14:37:04.001Z</time>
      </trkpt>
      <trkpt lat="45.02928" lon="1.08535">
        <ele>217.288</ele>
        <time>2019-10-30T14:37:34.001Z</time>
      </trkpt>
      <trkpt lat="45.02862" lon="1.08429">
        <ele>218.574</ele>
        <time>2019-10-30T14:38:04.001Z</time>
      </trkpt>
      <trkpt lat="45.02797" lon="1.08299">
        <ele>223.128</ele>
        <time>2019-10-30T14:38:37.001Z</time>
      </trkpt>
      <trkpt lat="45.02767" lon="1.08157">
        <ele>226.174</ele>
        <time>2019-10-30T14:39:07.001Z</time>
      </trkpt>
      <trkpt lat="45.02804" lon="1.07992">
        <ele>230.427</ele>
        <time>2019-10-30T14:39:40.001Z</time>
      </trkpt>
      <trkpt lat="45.029" lon="1.07858">
        <ele>226.754</ele>
        <time>2019-10-30T14:40:10.001Z</time>
      </trkpt>
      <trkpt lat="45.0303" lon="1.07792">
        <ele>228.872</ele>
        <time>2019-10-30T14:40:40.001Z</time>
      </trkpt>
      <trkpt lat="45.03151" lon="1.07682">
        <ele>228.968</ele>
        <time>2019-10-30T14:41:13.001Z</time>
      </trkpt>
      <trkpt lat="45.03148" lon="1.07412">
        <ele>221.182</ele>
        <time>2019-10-30T14:41:43.001Z</time>
      </trkpt>
      <trkpt lat="45.03232" lon="1.07327">
        <ele>224.78</ele>
        <time>2019-10-30T14:42:16Z</time>
      </trkpt>
      <trkpt lat="45.03272" lon="1.07271">
        <ele>225.846</ele>
        <time>2019-10-30T14:42:46.001Z</time>
      </trkpt>
      <trkpt lat="45.03301" lon="1.07198">
        <ele>232.209</ele>
        <time>2019-10-30T14:43:19.001Z</time>
      </trkpt>
      <trkpt lat="45.03308" lon="1.07107">
        <ele>238.553</ele>
        <time>2019-10-30T14:43:52.001Z</time>
      </trkpt>
      <trkpt lat="45.03301" lon="1.07015">
        <ele>242.381</ele>
        <time>2019-10-30T14:44:22.001Z</time>
      </trkpt>
      <trkpt lat="45.03289" lon="1.06921">
        <ele>243.956</ele>
        <time>2019-10-30T14:44:55.001Z</time>
      </trkpt>
      <trkpt lat="45.03294" lon="1.06834">
        <ele>245.058</ele>
        <time>2019-10-30T14:45:25.001Z</time>
      </trkpt>
      <trkpt lat="45.03374" lon="1.06653">
        <ele>238.999</ele>
        <time>2019-10-30T14:45:58.001Z</time>
      </trkpt>
      <trkpt lat="45.03331" lon="1.06247">
        <ele>223.07</ele>
        <time>2019-10-30T14:46:28.001Z</time>
      </trkpt>
      <trkpt lat="45.03254" lon="1.05717">
        <ele>193.689</ele>
        <time>2019-10-30T14:46:58.001Z</time>
      </trkpt>
      <trkpt lat="45.03061" lon="1.05245">
        <ele>149.793</ele>
        <time>2019-10-30T14:47:31.001Z</time>
      </trkpt>
      <trkpt lat="45.03075" lon="1.04821">
        <ele>117.875</ele>
        <time>2019-10-30T14:48:01.001Z</time>
      </trkpt>
      <trkpt lat="45.03044" lon="1.04413">
        <ele>91.194</ele>
        <time>2019-10-30T14:48:34.001Z</time>
      </trkpt>
      <trkpt lat="45.03114" lon="1.0435">
        <ele>90.078</ele>
        <time>2019-10-30T14:49:04.001Z</time>
      </trkpt>
      <trkpt lat="45.03162" lon="1.04291">
        <ele>99.858</ele>
        <time>2019-10-30T14:52:43.001Z</time>
      </trkpt>
      <trkpt lat="45.03235" lon="1.04218">
        <ele>104.498</ele>
        <time>2019-10-30T14:53:16Z</time>
      </trkpt>
      <trkpt lat="45.03306" lon="1.04148">
        <ele>108.552</ele>
        <time>2019-10-30T14:53:46.001Z</time>
      </trkpt>
      <trkpt lat="45.03375" lon="1.0407">
        <ele>115.179</ele>
        <time>2019-10-30T14:54:19.001Z</time>
      </trkpt>
      <trkpt lat="45.03445" lon="1.04">
        <ele>116.431</ele>
        <time>2019-10-30T14:54:49.001Z</time>
      </trkpt>
      <trkpt lat="45.03545" lon="1.03898">
        <ele>116.814</ele>
        <time>2019-10-30T14:55:19.001Z</time>
      </trkpt>
      <trkpt lat="45.03682" lon="1.03782">
        <ele>114.362</ele>
        <time>2019-10-30T14:55:52.001Z</time>
      </trkpt>
      <trkpt lat="45.03827" lon="1.03702">
        <ele>111.162</ele>
        <time>2019-10-30T14:56:22.001Z</time>
      </trkpt>
      <trkpt lat="45.0394" lon="1.03556">
        <ele>108.472</ele>
        <time>2019-10-30T14:56:55.001Z</time>
      </trkpt>
      <trkpt lat="45.04051" lon="1.03473">
        <ele>111.485</ele>
        <time>2019-10-30T14:57:25.001Z</time>
      </trkpt>
      <trkpt lat="45.04171" lon="1.03391">
        <ele>111.144</ele>
        <time>2019-10-30T14:57:58.001Z</time>
      </trkpt>
      <trkpt lat="45.04281" lon="1.03307">
        <ele>114.421</ele>
        <time>2019-10-30T14:58:28.001Z</time>
      </trkpt>
      <trkpt lat="45.04401" lon="1.03236">
        <ele>117.335</ele>
        <time>2019-10-30T14:58:58.001Z</time>
      </trkpt>
      <trkpt lat="45.04552" lon="1.03172">
        <ele>113.181</ele>
        <time>2019-10-30T14:59:31.001Z</time>
      </trkpt>
      <trkpt lat="45.04689" lon="1.03188">
        <ele>113.191</ele>
        <time>2019-10-30T15:00:01.001Z</time>
      </trkpt>
      <trkpt lat="45.04795" lon="1.03214">
        <ele>111.826</ele>
        <time>2019-10-30T15:00:34.001Z</time>
      </trkpt>
      <trkpt lat="45.04829" lon="1.03218">
        <ele>114.631</ele>
        <time>2019-10-30T15:02:52.001Z</time>
      </trkpt>
      <trkpt lat="45.04869" lon="1.0322">
        <ele>116.056</ele>
        <time>2019-10-30T15:03:25.001Z</time>
      </trkpt>
      <trkpt lat="45.04883" lon="1.03244">
        <ele>121.516</ele>
        <time>2019-10-30T15:50:13.001Z</time>
      </trkpt>
    </trkseg>
  </trk>
</gpx>